<?xml version="1.0" encoding="UTF-8" standalone="no" ?>
<gpx xmlns="http://www.topografix.com/GPX/1/1" xmlns:xsi="http://www.w3.org/2001/XMLSchema-instance" xsi:schemaLocation="http://www.topografix.com/GPX/1/1 http://www.topografix.com/GPX/1/1/gpx.xsd" version="1.1" creator="VisuGPX - https://www.visugpx.com">
  <metadata>
    <name>J4 Trizay_BoucleArnoult_19.4km</name>
    <desc><![CDATA[J4 Rochefort2025 Boucle Arnoult 19,4km gnerando]]></desc>
  </metadata>
  <trk>
    <name><![CDATA[2025-05-22 09:14]]></name>
    <desc><![CDATA[<p>Heure de départ: 05/22/2025 09:14<br/>Heure d'arrivée: 05/22/2025 15:13<br/>Distance: 18,4 km (04:35)<br/>Temps déplacement: 03:56<br/>Vitesse moyenne: 4,01 km/h<br/>Vitesse moyenne mouv.: 4,67 km/h<br/>Vitesse Max.: 6,82 km/h<br/>Altitude minimale: 2 m<br/>Altitude maximale: 37 m<br/>Vitesse de montée: 87,7 m/h<br/>Vitesse de descente: -112 m/h<br/>Gain d'altitude: 209 m<br/>Perte d'altitude: -201 m<br/>Temps de montée: 02:23<br/>Temps de descente: 01:47<br/></p><hr align="center" width="480" style="height: 2px; width: 517px"/>]]></desc>
    <extensions>
      <line xmlns="http://www.topografix.com/GPX/gpx_style/0/2">
        <color>0000FF</color>
        <width>4</width>
      </line>
    </extensions>
    <trkseg>
      <trkpt lat="45.87605" lon="-0.95109">
        <ele>11.46</ele>
        <time>2025-05-22T13:13:41Z</time>
      </trkpt>
      <trkpt lat="45.87613" lon="-0.95082">
        <ele>10.46</ele>
        <time>2025-05-22T13:13:21Z</time>
      </trkpt>
      <trkpt lat="45.87628" lon="-0.95063">
        <ele>10.46</ele>
        <time>2025-05-22T13:13:01Z</time>
      </trkpt>
      <trkpt lat="45.87645" lon="-0.95054">
        <ele>9.46</ele>
        <time>2025-05-22T13:12:41Z</time>
      </trkpt>
      <trkpt lat="45.87664" lon="-0.95061">
        <ele>8.46</ele>
        <time>2025-05-22T13:12:25Z</time>
      </trkpt>
      <trkpt lat="45.87687" lon="-0.95061">
        <ele>7.46</ele>
        <time>2025-05-22T13:12:01Z</time>
      </trkpt>
      <trkpt lat="45.87705" lon="-0.95069">
        <ele>6.46</ele>
        <time>2025-05-22T13:11:37Z</time>
      </trkpt>
      <trkpt lat="45.87723" lon="-0.95065">
        <ele>8.46</ele>
        <time>2025-05-22T13:11:13Z</time>
      </trkpt>
      <trkpt lat="45.87727" lon="-0.95034">
        <ele>5.46</ele>
        <time>2025-05-22T13:10:53Z</time>
      </trkpt>
      <trkpt lat="45.87732" lon="-0.95004">
        <ele>6.46</ele>
        <time>2025-05-22T13:10:37Z</time>
      </trkpt>
      <trkpt lat="45.87736" lon="-0.94973">
        <ele>7.46</ele>
        <time>2025-05-22T13:10:17Z</time>
      </trkpt>
      <trkpt lat="45.87739" lon="-0.94947">
        <ele>9.46</ele>
        <time>2025-05-22T13:10:05Z</time>
      </trkpt>
      <trkpt lat="45.87745" lon="-0.94922">
        <ele>6.46</ele>
        <time>2025-05-22T13:09:49Z</time>
      </trkpt>
      <trkpt lat="45.87751" lon="-0.94896">
        <ele>7.46</ele>
        <time>2025-05-22T13:09:33Z</time>
      </trkpt>
      <trkpt lat="45.87758" lon="-0.94872">
        <ele>7.46</ele>
        <time>2025-05-22T13:09:17Z</time>
      </trkpt>
      <trkpt lat="45.87767" lon="-0.94845">
        <ele>5.46</ele>
        <time>2025-05-22T13:09:01Z</time>
      </trkpt>
      <trkpt lat="45.87776" lon="-0.94817">
        <ele>5.46</ele>
        <time>2025-05-22T13:08:45Z</time>
      </trkpt>
      <trkpt lat="45.87786" lon="-0.94789">
        <ele>6.46</ele>
        <time>2025-05-22T13:08:25Z</time>
      </trkpt>
      <trkpt lat="45.87799" lon="-0.94765">
        <ele>5.46</ele>
        <time>2025-05-22T13:08:09Z</time>
      </trkpt>
      <trkpt lat="45.87811" lon="-0.9474">
        <ele>5.46</ele>
        <time>2025-05-22T13:07:53Z</time>
      </trkpt>
      <trkpt lat="45.87824" lon="-0.94716">
        <ele>5.46</ele>
        <time>2025-05-22T13:07:33Z</time>
      </trkpt>
      <trkpt lat="45.87837" lon="-0.94696">
        <ele>3.46</ele>
        <time>2025-05-22T13:07:17Z</time>
      </trkpt>
      <trkpt lat="45.8785" lon="-0.94676">
        <ele>4.46</ele>
        <time>2025-05-22T13:07:01Z</time>
      </trkpt>
      <trkpt lat="45.87865" lon="-0.94656">
        <ele>3.46</ele>
        <time>2025-05-22T13:06:45Z</time>
      </trkpt>
      <trkpt lat="45.8788" lon="-0.94637">
        <ele>5.46</ele>
        <time>2025-05-22T13:06:29Z</time>
      </trkpt>
      <trkpt lat="45.87895" lon="-0.9462">
        <ele>4.46</ele>
        <time>2025-05-22T13:06:13Z</time>
      </trkpt>
      <trkpt lat="45.87912" lon="-0.94602">
        <ele>4.46</ele>
        <time>2025-05-22T13:05:57Z</time>
      </trkpt>
      <trkpt lat="45.87928" lon="-0.94585">
        <ele>6.46</ele>
        <time>2025-05-22T13:05:41Z</time>
      </trkpt>
      <trkpt lat="45.87945" lon="-0.9457">
        <ele>5.46</ele>
        <time>2025-05-22T13:05:25Z</time>
      </trkpt>
      <trkpt lat="45.87962" lon="-0.94554">
        <ele>6.46</ele>
        <time>2025-05-22T13:05:09Z</time>
      </trkpt>
      <trkpt lat="45.87979" lon="-0.94539">
        <ele>6.46</ele>
        <time>2025-05-22T13:04:53Z</time>
      </trkpt>
      <trkpt lat="45.87996" lon="-0.94524">
        <ele>6.46</ele>
        <time>2025-05-22T13:04:37Z</time>
      </trkpt>
      <trkpt lat="45.88013" lon="-0.94512">
        <ele>6.46</ele>
        <time>2025-05-22T13:04:21Z</time>
      </trkpt>
      <trkpt lat="45.88028" lon="-0.94495">
        <ele>7.46</ele>
        <time>2025-05-22T13:04:05Z</time>
      </trkpt>
      <trkpt lat="45.88045" lon="-0.94481">
        <ele>5.46</ele>
        <time>2025-05-22T13:03:49Z</time>
      </trkpt>
      <trkpt lat="45.88063" lon="-0.94467">
        <ele>6.46</ele>
        <time>2025-05-22T13:03:33Z</time>
      </trkpt>
      <trkpt lat="45.88077" lon="-0.94449">
        <ele>7.46</ele>
        <time>2025-05-22T13:03:17Z</time>
      </trkpt>
      <trkpt lat="45.88094" lon="-0.94435">
        <ele>7.46</ele>
        <time>2025-05-22T13:03:01Z</time>
      </trkpt>
      <trkpt lat="45.88111" lon="-0.94417">
        <ele>7.46</ele>
        <time>2025-05-22T13:02:45Z</time>
      </trkpt>
      <trkpt lat="45.88128" lon="-0.94402">
        <ele>7.46</ele>
        <time>2025-05-22T13:02:29Z</time>
      </trkpt>
      <trkpt lat="45.88145" lon="-0.9439">
        <ele>7.46</ele>
        <time>2025-05-22T13:02:13Z</time>
      </trkpt>
      <trkpt lat="45.8816" lon="-0.94373">
        <ele>7.46</ele>
        <time>2025-05-22T13:01:57Z</time>
      </trkpt>
      <trkpt lat="45.88176" lon="-0.94357">
        <ele>7.46</ele>
        <time>2025-05-22T13:01:41Z</time>
      </trkpt>
      <trkpt lat="45.88191" lon="-0.94341">
        <ele>6.46</ele>
        <time>2025-05-22T13:01:25Z</time>
      </trkpt>
      <trkpt lat="45.88207" lon="-0.94324">
        <ele>6.46</ele>
        <time>2025-05-22T13:01:09Z</time>
      </trkpt>
      <trkpt lat="45.88224" lon="-0.94309">
        <ele>7.46</ele>
        <time>2025-05-22T13:00:53Z</time>
      </trkpt>
      <trkpt lat="45.88242" lon="-0.94294">
        <ele>7.46</ele>
        <time>2025-05-22T13:00:37Z</time>
      </trkpt>
      <trkpt lat="45.88258" lon="-0.94277">
        <ele>6.46</ele>
        <time>2025-05-22T13:00:21Z</time>
      </trkpt>
      <trkpt lat="45.88273" lon="-0.9426">
        <ele>6.46</ele>
        <time>2025-05-22T13:00:05Z</time>
      </trkpt>
      <trkpt lat="45.88291" lon="-0.94246">
        <ele>7.46</ele>
        <time>2025-05-22T12:59:49Z</time>
      </trkpt>
      <trkpt lat="45.88308" lon="-0.9423">
        <ele>7.46</ele>
        <time>2025-05-22T12:59:33Z</time>
      </trkpt>
      <trkpt lat="45.88324" lon="-0.94213">
        <ele>7.46</ele>
        <time>2025-05-22T12:59:17Z</time>
      </trkpt>
      <trkpt lat="45.88341" lon="-0.94201">
        <ele>7.46</ele>
        <time>2025-05-22T12:59:01Z</time>
      </trkpt>
      <trkpt lat="45.88358" lon="-0.94187">
        <ele>8.46</ele>
        <time>2025-05-22T12:58:49Z</time>
      </trkpt>
      <trkpt lat="45.88373" lon="-0.94169">
        <ele>7.46</ele>
        <time>2025-05-22T12:58:33Z</time>
      </trkpt>
      <trkpt lat="45.88389" lon="-0.94154">
        <ele>6.46</ele>
        <time>2025-05-22T12:58:17Z</time>
      </trkpt>
      <trkpt lat="45.88408" lon="-0.94136">
        <ele>5.46</ele>
        <time>2025-05-22T12:58:01Z</time>
      </trkpt>
      <trkpt lat="45.88423" lon="-0.94119">
        <ele>3.46</ele>
        <time>2025-05-22T12:57:45Z</time>
      </trkpt>
      <trkpt lat="45.88441" lon="-0.94103">
        <ele>4.46</ele>
        <time>2025-05-22T12:57:28Z</time>
      </trkpt>
      <trkpt lat="45.88458" lon="-0.94088">
        <ele>4.46</ele>
        <time>2025-05-22T12:57:12Z</time>
      </trkpt>
      <trkpt lat="45.88474" lon="-0.94072">
        <ele>6.46</ele>
        <time>2025-05-22T12:56:56Z</time>
      </trkpt>
      <trkpt lat="45.88491" lon="-0.94052">
        <ele>7.46</ele>
        <time>2025-05-22T12:56:40Z</time>
      </trkpt>
      <trkpt lat="45.8851" lon="-0.9404">
        <ele>5.46</ele>
        <time>2025-05-22T12:56:24Z</time>
      </trkpt>
      <trkpt lat="45.88529" lon="-0.94024">
        <ele>6.46</ele>
        <time>2025-05-22T12:56:08Z</time>
      </trkpt>
      <trkpt lat="45.88545" lon="-0.94007">
        <ele>5.46</ele>
        <time>2025-05-22T12:55:52Z</time>
      </trkpt>
      <trkpt lat="45.88562" lon="-0.9399">
        <ele>3.46</ele>
        <time>2025-05-22T12:55:36Z</time>
      </trkpt>
      <trkpt lat="45.88579" lon="-0.93969">
        <ele>6.46</ele>
        <time>2025-05-22T12:55:20Z</time>
      </trkpt>
      <trkpt lat="45.88597" lon="-0.93956">
        <ele>5.46</ele>
        <time>2025-05-22T12:55:04Z</time>
      </trkpt>
      <trkpt lat="45.88614" lon="-0.93942">
        <ele>3.46</ele>
        <time>2025-05-22T12:54:48Z</time>
      </trkpt>
      <trkpt lat="45.88628" lon="-0.93925">
        <ele>4.46</ele>
        <time>2025-05-22T12:54:32Z</time>
      </trkpt>
      <trkpt lat="45.88643" lon="-0.9391">
        <ele>5.46</ele>
        <time>2025-05-22T12:54:16Z</time>
      </trkpt>
      <trkpt lat="45.88661" lon="-0.93897">
        <ele>5.46</ele>
        <time>2025-05-22T12:54:00Z</time>
      </trkpt>
      <trkpt lat="45.88677" lon="-0.93881">
        <ele>7.46</ele>
        <time>2025-05-22T12:53:44Z</time>
      </trkpt>
      <trkpt lat="45.88694" lon="-0.93867">
        <ele>8.46</ele>
        <time>2025-05-22T12:53:28Z</time>
      </trkpt>
      <trkpt lat="45.88711" lon="-0.9385">
        <ele>8.46</ele>
        <time>2025-05-22T12:53:12Z</time>
      </trkpt>
      <trkpt lat="45.88728" lon="-0.93834">
        <ele>8.46</ele>
        <time>2025-05-22T12:52:56Z</time>
      </trkpt>
      <trkpt lat="45.88743" lon="-0.93817">
        <ele>9.46</ele>
        <time>2025-05-22T12:52:40Z</time>
      </trkpt>
      <trkpt lat="45.88761" lon="-0.93805">
        <ele>6.46</ele>
        <time>2025-05-22T12:52:24Z</time>
      </trkpt>
      <trkpt lat="45.88778" lon="-0.93787">
        <ele>6.46</ele>
        <time>2025-05-22T12:52:08Z</time>
      </trkpt>
      <trkpt lat="45.88793" lon="-0.93771">
        <ele>6.46</ele>
        <time>2025-05-22T12:51:52Z</time>
      </trkpt>
      <trkpt lat="45.88811" lon="-0.93752">
        <ele>5.46</ele>
        <time>2025-05-22T12:51:36Z</time>
      </trkpt>
      <trkpt lat="45.88828" lon="-0.93734">
        <ele>6.46</ele>
        <time>2025-05-22T12:51:20Z</time>
      </trkpt>
      <trkpt lat="45.88844" lon="-0.93709">
        <ele>6.46</ele>
        <time>2025-05-22T12:51:00Z</time>
      </trkpt>
      <trkpt lat="45.88857" lon="-0.9369">
        <ele>5.46</ele>
        <time>2025-05-22T12:50:44Z</time>
      </trkpt>
      <trkpt lat="45.88871" lon="-0.9367">
        <ele>4.46</ele>
        <time>2025-05-22T12:50:28Z</time>
      </trkpt>
      <trkpt lat="45.88887" lon="-0.93648">
        <ele>5.46</ele>
        <time>2025-05-22T12:50:12Z</time>
      </trkpt>
      <trkpt lat="45.88898" lon="-0.93627">
        <ele>3.46</ele>
        <time>2025-05-22T12:49:56Z</time>
      </trkpt>
      <trkpt lat="45.88909" lon="-0.93605">
        <ele>2.46</ele>
        <time>2025-05-22T12:49:40Z</time>
      </trkpt>
      <trkpt lat="45.88921" lon="-0.93583">
        <ele>3.46</ele>
        <time>2025-05-22T12:49:24Z</time>
      </trkpt>
      <trkpt lat="45.88931" lon="-0.9356">
        <ele>3.46</ele>
        <time>2025-05-22T12:49:08Z</time>
      </trkpt>
      <trkpt lat="45.88944" lon="-0.9354">
        <ele>4.46</ele>
        <time>2025-05-22T12:48:52Z</time>
      </trkpt>
      <trkpt lat="45.88957" lon="-0.9352">
        <ele>6.46</ele>
        <time>2025-05-22T12:48:36Z</time>
      </trkpt>
      <trkpt lat="45.88969" lon="-0.93495">
        <ele>5.46</ele>
        <time>2025-05-22T12:48:20Z</time>
      </trkpt>
      <trkpt lat="45.88983" lon="-0.9347">
        <ele>7.46</ele>
        <time>2025-05-22T12:48:00Z</time>
      </trkpt>
      <trkpt lat="45.88994" lon="-0.93448">
        <ele>7.46</ele>
        <time>2025-05-22T12:47:44Z</time>
      </trkpt>
      <trkpt lat="45.89007" lon="-0.93424">
        <ele>5.46</ele>
        <time>2025-05-22T12:47:24Z</time>
      </trkpt>
      <trkpt lat="45.89021" lon="-0.93399">
        <ele>6.46</ele>
        <time>2025-05-22T12:47:04Z</time>
      </trkpt>
      <trkpt lat="45.89035" lon="-0.93382">
        <ele>6.46</ele>
        <time>2025-05-22T12:45:56Z</time>
      </trkpt>
      <trkpt lat="45.89044" lon="-0.93357">
        <ele>3.46</ele>
        <time>2025-05-22T12:45:36Z</time>
      </trkpt>
      <trkpt lat="45.89059" lon="-0.93335">
        <ele>4.46</ele>
        <time>2025-05-22T12:45:20Z</time>
      </trkpt>
      <trkpt lat="45.89069" lon="-0.9331">
        <ele>4.46</ele>
        <time>2025-05-22T12:45:04Z</time>
      </trkpt>
      <trkpt lat="45.89084" lon="-0.93284">
        <ele>2.46</ele>
        <time>2025-05-22T12:44:44Z</time>
      </trkpt>
      <trkpt lat="45.89096" lon="-0.93261">
        <ele>5.46</ele>
        <time>2025-05-22T12:44:28Z</time>
      </trkpt>
      <trkpt lat="45.89109" lon="-0.93236">
        <ele>5.46</ele>
        <time>2025-05-22T12:44:08Z</time>
      </trkpt>
      <trkpt lat="45.8912" lon="-0.93212">
        <ele>3.46</ele>
        <time>2025-05-22T12:43:52Z</time>
      </trkpt>
      <trkpt lat="45.89135" lon="-0.93189">
        <ele>4.46</ele>
        <time>2025-05-22T12:43:32Z</time>
      </trkpt>
      <trkpt lat="45.89147" lon="-0.93164">
        <ele>4.46</ele>
        <time>2025-05-22T12:43:16Z</time>
      </trkpt>
      <trkpt lat="45.89158" lon="-0.93139">
        <ele>4.46</ele>
        <time>2025-05-22T12:42:56Z</time>
      </trkpt>
      <trkpt lat="45.89171" lon="-0.93119">
        <ele>7.46</ele>
        <time>2025-05-22T12:42:40Z</time>
      </trkpt>
      <trkpt lat="45.89184" lon="-0.93097">
        <ele>8.46</ele>
        <time>2025-05-22T12:42:20Z</time>
      </trkpt>
      <trkpt lat="45.89197" lon="-0.93073">
        <ele>3.46</ele>
        <time>2025-05-22T12:42:00Z</time>
      </trkpt>
      <trkpt lat="45.89211" lon="-0.93049">
        <ele>4.46</ele>
        <time>2025-05-22T12:41:40Z</time>
      </trkpt>
      <trkpt lat="45.89222" lon="-0.93028">
        <ele>4.46</ele>
        <time>2025-05-22T12:41:24Z</time>
      </trkpt>
      <trkpt lat="45.89233" lon="-0.93006">
        <ele>5.46</ele>
        <time>2025-05-22T12:41:08Z</time>
      </trkpt>
      <trkpt lat="45.89244" lon="-0.92983">
        <ele>5.46</ele>
        <time>2025-05-22T12:40:52Z</time>
      </trkpt>
      <trkpt lat="45.89256" lon="-0.92962">
        <ele>5.46</ele>
        <time>2025-05-22T12:40:32Z</time>
      </trkpt>
      <trkpt lat="45.89268" lon="-0.92939">
        <ele>5.46</ele>
        <time>2025-05-22T12:40:12Z</time>
      </trkpt>
      <trkpt lat="45.89281" lon="-0.92916">
        <ele>7.46</ele>
        <time>2025-05-22T12:39:56Z</time>
      </trkpt>
      <trkpt lat="45.89297" lon="-0.92895">
        <ele>7.46</ele>
        <time>2025-05-22T12:39:40Z</time>
      </trkpt>
      <trkpt lat="45.89308" lon="-0.92869">
        <ele>8.46</ele>
        <time>2025-05-22T12:38:44Z</time>
      </trkpt>
      <trkpt lat="45.89318" lon="-0.92842">
        <ele>6.46</ele>
        <time>2025-05-22T12:37:40Z</time>
      </trkpt>
      <trkpt lat="45.89329" lon="-0.92818">
        <ele>5.46</ele>
        <time>2025-05-22T12:37:08Z</time>
      </trkpt>
      <trkpt lat="45.89338" lon="-0.92793">
        <ele>7.46</ele>
        <time>2025-05-22T12:36:40Z</time>
      </trkpt>
      <trkpt lat="45.8935" lon="-0.92768">
        <ele>7.46</ele>
        <time>2025-05-22T12:36:08Z</time>
      </trkpt>
      <trkpt lat="45.89359" lon="-0.92745">
        <ele>6.46</ele>
        <time>2025-05-22T12:35:52Z</time>
      </trkpt>
      <trkpt lat="45.8937" lon="-0.92723">
        <ele>6.46</ele>
        <time>2025-05-22T12:35:36Z</time>
      </trkpt>
      <trkpt lat="45.89381" lon="-0.92699">
        <ele>6.46</ele>
        <time>2025-05-22T12:35:20Z</time>
      </trkpt>
      <trkpt lat="45.8939" lon="-0.92676">
        <ele>7.46</ele>
        <time>2025-05-22T12:35:04Z</time>
      </trkpt>
      <trkpt lat="45.89401" lon="-0.92648">
        <ele>9.46</ele>
        <time>2025-05-22T12:34:32Z</time>
      </trkpt>
      <trkpt lat="45.89412" lon="-0.92624">
        <ele>9.46</ele>
        <time>2025-05-22T12:34:16Z</time>
      </trkpt>
      <trkpt lat="45.89423" lon="-0.92594">
        <ele>10.46</ele>
        <time>2025-05-22T12:33:56Z</time>
      </trkpt>
      <trkpt lat="45.89434" lon="-0.92567">
        <ele>4.46</ele>
        <time>2025-05-22T12:33:36Z</time>
      </trkpt>
      <trkpt lat="45.89444" lon="-0.92543">
        <ele>3.46</ele>
        <time>2025-05-22T12:33:20Z</time>
      </trkpt>
      <trkpt lat="45.89457" lon="-0.92515">
        <ele>5.46</ele>
        <time>2025-05-22T12:33:00Z</time>
      </trkpt>
      <trkpt lat="45.89469" lon="-0.92494">
        <ele>5.46</ele>
        <time>2025-05-22T12:32:44Z</time>
      </trkpt>
      <trkpt lat="45.89478" lon="-0.92468">
        <ele>5.46</ele>
        <time>2025-05-22T12:32:28Z</time>
      </trkpt>
      <trkpt lat="45.89488" lon="-0.92445">
        <ele>5.46</ele>
        <time>2025-05-22T12:32:12Z</time>
      </trkpt>
      <trkpt lat="45.89498" lon="-0.92419">
        <ele>6.46</ele>
        <time>2025-05-22T12:31:56Z</time>
      </trkpt>
      <trkpt lat="45.89508" lon="-0.92398">
        <ele>7.46</ele>
        <time>2025-05-22T12:31:40Z</time>
      </trkpt>
      <trkpt lat="45.89517" lon="-0.92373">
        <ele>8.46</ele>
        <time>2025-05-22T12:31:24Z</time>
      </trkpt>
      <trkpt lat="45.89529" lon="-0.92351">
        <ele>7.46</ele>
        <time>2025-05-22T12:31:04Z</time>
      </trkpt>
      <trkpt lat="45.8954" lon="-0.92325">
        <ele>6.46</ele>
        <time>2025-05-22T12:16:02Z</time>
      </trkpt>
      <trkpt lat="45.89551" lon="-0.92303">
        <ele>8.46</ele>
        <time>2025-05-22T12:15:46Z</time>
      </trkpt>
      <trkpt lat="45.89561" lon="-0.92276">
        <ele>6.46</ele>
        <time>2025-05-22T12:15:30Z</time>
      </trkpt>
      <trkpt lat="45.89572" lon="-0.9225">
        <ele>6.46</ele>
        <time>2025-05-22T12:15:10Z</time>
      </trkpt>
      <trkpt lat="45.89584" lon="-0.92222">
        <ele>7.46</ele>
        <time>2025-05-22T12:14:50Z</time>
      </trkpt>
      <trkpt lat="45.89592" lon="-0.92199">
        <ele>7.46</ele>
        <time>2025-05-22T12:14:34Z</time>
      </trkpt>
      <trkpt lat="45.89604" lon="-0.92174">
        <ele>7.46</ele>
        <time>2025-05-22T12:14:18Z</time>
      </trkpt>
      <trkpt lat="45.89616" lon="-0.92149">
        <ele>6.46</ele>
        <time>2025-05-22T12:13:58Z</time>
      </trkpt>
      <trkpt lat="45.89628" lon="-0.92126">
        <ele>7.46</ele>
        <time>2025-05-22T12:13:42Z</time>
      </trkpt>
      <trkpt lat="45.89638" lon="-0.92103">
        <ele>8.46</ele>
        <time>2025-05-22T12:13:26Z</time>
      </trkpt>
      <trkpt lat="45.89648" lon="-0.92078">
        <ele>9.46</ele>
        <time>2025-05-22T12:13:10Z</time>
      </trkpt>
      <trkpt lat="45.89656" lon="-0.92052">
        <ele>7.46</ele>
        <time>2025-05-22T12:12:54Z</time>
      </trkpt>
      <trkpt lat="45.89667" lon="-0.92029">
        <ele>9.46</ele>
        <time>2025-05-22T12:12:38Z</time>
      </trkpt>
      <trkpt lat="45.89679" lon="-0.92002">
        <ele>11.46</ele>
        <time>2025-05-22T12:12:22Z</time>
      </trkpt>
      <trkpt lat="45.89691" lon="-0.91977">
        <ele>9.46</ele>
        <time>2025-05-22T12:12:02Z</time>
      </trkpt>
      <trkpt lat="45.89704" lon="-0.91951">
        <ele>8.46</ele>
        <time>2025-05-22T12:11:42Z</time>
      </trkpt>
      <trkpt lat="45.89711" lon="-0.91926">
        <ele>10.46</ele>
        <time>2025-05-22T12:11:26Z</time>
      </trkpt>
      <trkpt lat="45.89725" lon="-0.91901">
        <ele>8.46</ele>
        <time>2025-05-22T12:11:10Z</time>
      </trkpt>
      <trkpt lat="45.89735" lon="-0.91878">
        <ele>7.46</ele>
        <time>2025-05-22T12:10:54Z</time>
      </trkpt>
      <trkpt lat="45.89748" lon="-0.91851">
        <ele>7.46</ele>
        <time>2025-05-22T12:10:34Z</time>
      </trkpt>
      <trkpt lat="45.8976" lon="-0.91831">
        <ele>7.46</ele>
        <time>2025-05-22T12:10:18Z</time>
      </trkpt>
      <trkpt lat="45.89772" lon="-0.91808">
        <ele>8.46</ele>
        <time>2025-05-22T12:10:02Z</time>
      </trkpt>
      <trkpt lat="45.89784" lon="-0.91786">
        <ele>6.46</ele>
        <time>2025-05-22T12:09:46Z</time>
      </trkpt>
      <trkpt lat="45.89797" lon="-0.91767">
        <ele>7.46</ele>
        <time>2025-05-22T12:09:30Z</time>
      </trkpt>
      <trkpt lat="45.8981" lon="-0.91744">
        <ele>9.46</ele>
        <time>2025-05-22T12:09:10Z</time>
      </trkpt>
      <trkpt lat="45.89823" lon="-0.91725">
        <ele>11.46</ele>
        <time>2025-05-22T12:08:38Z</time>
      </trkpt>
      <trkpt lat="45.89822" lon="-0.91695">
        <ele>12.46</ele>
        <time>2025-05-22T12:08:10Z</time>
      </trkpt>
      <trkpt lat="45.898" lon="-0.91693">
        <ele>12.46</ele>
        <time>2025-05-22T12:07:54Z</time>
      </trkpt>
      <trkpt lat="45.89781" lon="-0.91694">
        <ele>13.46</ele>
        <time>2025-05-22T12:07:38Z</time>
      </trkpt>
      <trkpt lat="45.89762" lon="-0.91702">
        <ele>14.46</ele>
        <time>2025-05-22T12:07:22Z</time>
      </trkpt>
      <trkpt lat="45.89746" lon="-0.91718">
        <ele>14.46</ele>
        <time>2025-05-22T12:07:06Z</time>
      </trkpt>
      <trkpt lat="45.89729" lon="-0.91726">
        <ele>13.46</ele>
        <time>2025-05-22T12:06:50Z</time>
      </trkpt>
      <trkpt lat="45.89709" lon="-0.91735">
        <ele>13.46</ele>
        <time>2025-05-22T12:06:34Z</time>
      </trkpt>
      <trkpt lat="45.89691" lon="-0.91744">
        <ele>12.46</ele>
        <time>2025-05-22T12:06:18Z</time>
      </trkpt>
      <trkpt lat="45.89668" lon="-0.91749">
        <ele>13.46</ele>
        <time>2025-05-22T12:05:58Z</time>
      </trkpt>
      <trkpt lat="45.8965" lon="-0.91751">
        <ele>13.46</ele>
        <time>2025-05-22T12:05:42Z</time>
      </trkpt>
      <trkpt lat="45.89627" lon="-0.91751">
        <ele>15.46</ele>
        <time>2025-05-22T12:05:22Z</time>
      </trkpt>
      <trkpt lat="45.89608" lon="-0.91752">
        <ele>14.46</ele>
        <time>2025-05-22T12:04:58Z</time>
      </trkpt>
      <trkpt lat="45.89589" lon="-0.91758">
        <ele>13.46</ele>
        <time>2025-05-22T12:04:42Z</time>
      </trkpt>
      <trkpt lat="45.89569" lon="-0.91764">
        <ele>14.46</ele>
        <time>2025-05-22T12:04:26Z</time>
      </trkpt>
      <trkpt lat="45.89551" lon="-0.91773">
        <ele>15.46</ele>
        <time>2025-05-22T12:04:10Z</time>
      </trkpt>
      <trkpt lat="45.89533" lon="-0.91779">
        <ele>12.46</ele>
        <time>2025-05-22T12:03:54Z</time>
      </trkpt>
      <trkpt lat="45.89515" lon="-0.91791">
        <ele>12.46</ele>
        <time>2025-05-22T12:03:38Z</time>
      </trkpt>
      <trkpt lat="45.89497" lon="-0.91792">
        <ele>10.46</ele>
        <time>2025-05-22T12:03:22Z</time>
      </trkpt>
      <trkpt lat="45.89478" lon="-0.91798">
        <ele>9.46</ele>
        <time>2025-05-22T12:03:06Z</time>
      </trkpt>
      <trkpt lat="45.89459" lon="-0.91808">
        <ele>9.46</ele>
        <time>2025-05-22T12:02:46Z</time>
      </trkpt>
      <trkpt lat="45.89446" lon="-0.91826">
        <ele>4.46</ele>
        <time>2025-05-22T12:02:26Z</time>
      </trkpt>
      <trkpt lat="45.89427" lon="-0.91841">
        <ele>4.46</ele>
        <time>2025-05-22T12:02:02Z</time>
      </trkpt>
      <trkpt lat="45.8941" lon="-0.91857">
        <ele>6.46</ele>
        <time>2025-05-22T12:01:22Z</time>
      </trkpt>
      <trkpt lat="45.89393" lon="-0.91877">
        <ele>6.46</ele>
        <time>2025-05-22T12:01:02Z</time>
      </trkpt>
      <trkpt lat="45.89378" lon="-0.91891">
        <ele>6.46</ele>
        <time>2025-05-22T12:00:46Z</time>
      </trkpt>
      <trkpt lat="45.8936" lon="-0.9191">
        <ele>6.46</ele>
        <time>2025-05-22T12:00:26Z</time>
      </trkpt>
      <trkpt lat="45.89341" lon="-0.91903">
        <ele>9.46</ele>
        <time>2025-05-22T12:00:02Z</time>
      </trkpt>
      <trkpt lat="45.89326" lon="-0.91924">
        <ele>7.46</ele>
        <time>2025-05-22T11:59:50Z</time>
      </trkpt>
      <trkpt lat="45.89308" lon="-0.91936">
        <ele>5.46</ele>
        <time>2025-05-22T11:59:30Z</time>
      </trkpt>
      <trkpt lat="45.8929" lon="-0.9193">
        <ele>6.46</ele>
        <time>2025-05-22T11:59:10Z</time>
      </trkpt>
      <trkpt lat="45.89278" lon="-0.91905">
        <ele>5.46</ele>
        <time>2025-05-22T11:58:50Z</time>
      </trkpt>
      <trkpt lat="45.8928" lon="-0.91877">
        <ele>3.46</ele>
        <time>2025-05-22T11:58:30Z</time>
      </trkpt>
      <trkpt lat="45.89286" lon="-0.91851">
        <ele>5.46</ele>
        <time>2025-05-22T11:58:14Z</time>
      </trkpt>
      <trkpt lat="45.89277" lon="-0.91823">
        <ele>8.46</ele>
        <time>2025-05-22T11:57:54Z</time>
      </trkpt>
      <trkpt lat="45.89271" lon="-0.91797">
        <ele>9.46</ele>
        <time>2025-05-22T11:57:38Z</time>
      </trkpt>
      <trkpt lat="45.89263" lon="-0.91769">
        <ele>13.46</ele>
        <time>2025-05-22T11:57:18Z</time>
      </trkpt>
      <trkpt lat="45.8925" lon="-0.91742">
        <ele>18.46</ele>
        <time>2025-05-22T11:56:46Z</time>
      </trkpt>
      <trkpt lat="45.89231" lon="-0.91738">
        <ele>18.46</ele>
        <time>2025-05-22T11:56:22Z</time>
      </trkpt>
      <trkpt lat="45.89211" lon="-0.9173">
        <ele>17.46</ele>
        <time>2025-05-22T11:55:58Z</time>
      </trkpt>
      <trkpt lat="45.89193" lon="-0.91716">
        <ele>15.46</ele>
        <time>2025-05-22T11:55:34Z</time>
      </trkpt>
      <trkpt lat="45.89179" lon="-0.91698">
        <ele>16.46</ele>
        <time>2025-05-22T11:55:18Z</time>
      </trkpt>
      <trkpt lat="45.89166" lon="-0.91679">
        <ele>14.46</ele>
        <time>2025-05-22T11:55:02Z</time>
      </trkpt>
      <trkpt lat="45.89153" lon="-0.91658">
        <ele>13.46</ele>
        <time>2025-05-22T11:54:46Z</time>
      </trkpt>
      <trkpt lat="45.89137" lon="-0.91641">
        <ele>12.46</ele>
        <time>2025-05-22T11:54:26Z</time>
      </trkpt>
      <trkpt lat="45.89119" lon="-0.91635">
        <ele>10.46</ele>
        <time>2025-05-22T11:54:10Z</time>
      </trkpt>
      <trkpt lat="45.89107" lon="-0.91655">
        <ele>10.46</ele>
        <time>2025-05-22T11:53:54Z</time>
      </trkpt>
      <trkpt lat="45.89091" lon="-0.91673">
        <ele>11.46</ele>
        <time>2025-05-22T11:53:34Z</time>
      </trkpt>
      <trkpt lat="45.89075" lon="-0.91688">
        <ele>9.46</ele>
        <time>2025-05-22T11:53:10Z</time>
      </trkpt>
      <trkpt lat="45.89061" lon="-0.91667">
        <ele>7.46</ele>
        <time>2025-05-22T11:52:46Z</time>
      </trkpt>
      <trkpt lat="45.89055" lon="-0.91642">
        <ele>7.46</ele>
        <time>2025-05-22T11:52:30Z</time>
      </trkpt>
      <trkpt lat="45.89046" lon="-0.91613">
        <ele>10.46</ele>
        <time>2025-05-22T11:52:10Z</time>
      </trkpt>
      <trkpt lat="45.89057" lon="-0.91589">
        <ele>9.46</ele>
        <time>2025-05-22T11:51:54Z</time>
      </trkpt>
      <trkpt lat="45.89062" lon="-0.91562">
        <ele>11.46</ele>
        <time>2025-05-22T11:51:38Z</time>
      </trkpt>
      <trkpt lat="45.89051" lon="-0.9154">
        <ele>16.46</ele>
        <time>2025-05-22T11:51:22Z</time>
      </trkpt>
      <trkpt lat="45.89032" lon="-0.91539">
        <ele>19.46</ele>
        <time>2025-05-22T11:51:06Z</time>
      </trkpt>
      <trkpt lat="45.89014" lon="-0.91534">
        <ele>20.46</ele>
        <time>2025-05-22T11:50:50Z</time>
      </trkpt>
      <trkpt lat="45.88991" lon="-0.91531">
        <ele>20.46</ele>
        <time>2025-05-22T11:50:30Z</time>
      </trkpt>
      <trkpt lat="45.88972" lon="-0.91528">
        <ele>19.46</ele>
        <time>2025-05-22T11:50:14Z</time>
      </trkpt>
      <trkpt lat="45.88952" lon="-0.91531">
        <ele>14.46</ele>
        <time>2025-05-22T11:49:54Z</time>
      </trkpt>
      <trkpt lat="45.88932" lon="-0.91542">
        <ele>13.46</ele>
        <time>2025-05-22T11:49:38Z</time>
      </trkpt>
      <trkpt lat="45.88912" lon="-0.91548">
        <ele>12.46</ele>
        <time>2025-05-22T11:49:18Z</time>
      </trkpt>
      <trkpt lat="45.88892" lon="-0.91541">
        <ele>14.46</ele>
        <time>2025-05-22T11:48:58Z</time>
      </trkpt>
      <trkpt lat="45.88875" lon="-0.91532">
        <ele>13.46</ele>
        <time>2025-05-22T11:48:42Z</time>
      </trkpt>
      <trkpt lat="45.88855" lon="-0.91517">
        <ele>18.46</ele>
        <time>2025-05-22T11:48:22Z</time>
      </trkpt>
      <trkpt lat="45.88835" lon="-0.91505">
        <ele>19.46</ele>
        <time>2025-05-22T11:48:02Z</time>
      </trkpt>
      <trkpt lat="45.88817" lon="-0.91493">
        <ele>17.46</ele>
        <time>2025-05-22T11:47:46Z</time>
      </trkpt>
      <trkpt lat="45.88797" lon="-0.91478">
        <ele>16.46</ele>
        <time>2025-05-22T11:47:26Z</time>
      </trkpt>
      <trkpt lat="45.88779" lon="-0.91467">
        <ele>16.46</ele>
        <time>2025-05-22T11:47:10Z</time>
      </trkpt>
      <trkpt lat="45.8876" lon="-0.91453">
        <ele>14.46</ele>
        <time>2025-05-22T11:46:50Z</time>
      </trkpt>
      <trkpt lat="45.88738" lon="-0.91441">
        <ele>11.46</ele>
        <time>2025-05-22T11:46:34Z</time>
      </trkpt>
      <trkpt lat="45.88722" lon="-0.91427">
        <ele>11.46</ele>
        <time>2025-05-22T11:46:14Z</time>
      </trkpt>
      <trkpt lat="45.88702" lon="-0.91421">
        <ele>10.46</ele>
        <time>2025-05-22T11:45:58Z</time>
      </trkpt>
      <trkpt lat="45.88684" lon="-0.91415">
        <ele>7.46</ele>
        <time>2025-05-22T11:45:42Z</time>
      </trkpt>
      <trkpt lat="45.88665" lon="-0.91415">
        <ele>5.46</ele>
        <time>2025-05-22T11:45:26Z</time>
      </trkpt>
      <trkpt lat="45.88646" lon="-0.91417">
        <ele>5.46</ele>
        <time>2025-05-22T11:45:10Z</time>
      </trkpt>
      <trkpt lat="45.88626" lon="-0.91418">
        <ele>7.46</ele>
        <time>2025-05-22T11:44:50Z</time>
      </trkpt>
      <trkpt lat="45.88608" lon="-0.91419">
        <ele>7.46</ele>
        <time>2025-05-22T11:44:30Z</time>
      </trkpt>
      <trkpt lat="45.88586" lon="-0.9142">
        <ele>7.46</ele>
        <time>2025-05-22T11:44:10Z</time>
      </trkpt>
      <trkpt lat="45.88566" lon="-0.9142">
        <ele>8.46</ele>
        <time>2025-05-22T11:43:54Z</time>
      </trkpt>
      <trkpt lat="45.88546" lon="-0.9142">
        <ele>7.46</ele>
        <time>2025-05-22T11:43:38Z</time>
      </trkpt>
      <trkpt lat="45.88527" lon="-0.91421">
        <ele>7.46</ele>
        <time>2025-05-22T11:43:22Z</time>
      </trkpt>
      <trkpt lat="45.88506" lon="-0.9142">
        <ele>8.46</ele>
        <time>2025-05-22T11:42:58Z</time>
      </trkpt>
      <trkpt lat="45.88486" lon="-0.9142">
        <ele>8.46</ele>
        <time>2025-05-22T11:42:38Z</time>
      </trkpt>
      <trkpt lat="45.88465" lon="-0.91421">
        <ele>8.46</ele>
        <time>2025-05-22T11:42:18Z</time>
      </trkpt>
      <trkpt lat="45.88447" lon="-0.91421">
        <ele>8.46</ele>
        <time>2025-05-22T11:42:02Z</time>
      </trkpt>
      <trkpt lat="45.88428" lon="-0.91422">
        <ele>9.46</ele>
        <time>2025-05-22T11:41:46Z</time>
      </trkpt>
      <trkpt lat="45.88409" lon="-0.91421">
        <ele>10.46</ele>
        <time>2025-05-22T11:41:30Z</time>
      </trkpt>
      <trkpt lat="45.88389" lon="-0.91423">
        <ele>11.46</ele>
        <time>2025-05-22T11:41:10Z</time>
      </trkpt>
      <trkpt lat="45.8837" lon="-0.91422">
        <ele>12.46</ele>
        <time>2025-05-22T11:40:50Z</time>
      </trkpt>
      <trkpt lat="45.88351" lon="-0.9142">
        <ele>13.46</ele>
        <time>2025-05-22T11:40:30Z</time>
      </trkpt>
      <trkpt lat="45.88333" lon="-0.91422">
        <ele>12.46</ele>
        <time>2025-05-22T11:39:58Z</time>
      </trkpt>
      <trkpt lat="45.88311" lon="-0.91423">
        <ele>11.46</ele>
        <time>2025-05-22T11:39:38Z</time>
      </trkpt>
      <trkpt lat="45.8829" lon="-0.91425">
        <ele>12.46</ele>
        <time>2025-05-22T11:39:18Z</time>
      </trkpt>
      <trkpt lat="45.8827" lon="-0.91424">
        <ele>12.46</ele>
        <time>2025-05-22T11:38:58Z</time>
      </trkpt>
      <trkpt lat="45.88252" lon="-0.91425">
        <ele>12.46</ele>
        <time>2025-05-22T11:38:38Z</time>
      </trkpt>
      <trkpt lat="45.88233" lon="-0.91425">
        <ele>12.46</ele>
        <time>2025-05-22T11:38:14Z</time>
      </trkpt>
      <trkpt lat="45.88212" lon="-0.91429">
        <ele>10.46</ele>
        <time>2025-05-22T11:37:50Z</time>
      </trkpt>
      <trkpt lat="45.88194" lon="-0.91357">
        <ele>16.46</ele>
        <time>2025-05-22T10:13:23Z</time>
      </trkpt>
      <trkpt lat="45.88204" lon="-0.91378">
        <ele>16.46</ele>
        <time>2025-05-22T10:12:55Z</time>
      </trkpt>
      <trkpt lat="45.88216" lon="-0.91399">
        <ele>15.46</ele>
        <time>2025-05-22T10:12:35Z</time>
      </trkpt>
      <trkpt lat="45.88216" lon="-0.91428">
        <ele>15.46</ele>
        <time>2025-05-22T10:09:51Z</time>
      </trkpt>
      <trkpt lat="45.88234" lon="-0.91418">
        <ele>15.46</ele>
        <time>2025-05-22T10:08:59Z</time>
      </trkpt>
      <trkpt lat="45.88252" lon="-0.91422">
        <ele>14.46</ele>
        <time>2025-05-22T10:08:07Z</time>
      </trkpt>
      <trkpt lat="45.88231" lon="-0.91423">
        <ele>14.46</ele>
        <time>2025-05-22T10:07:47Z</time>
      </trkpt>
      <trkpt lat="45.8822" lon="-0.91402">
        <ele>16.46</ele>
        <time>2025-05-22T10:07:19Z</time>
      </trkpt>
      <trkpt lat="45.88215" lon="-0.91374">
        <ele>16.46</ele>
        <time>2025-05-22T10:07:03Z</time>
      </trkpt>
      <trkpt lat="45.88211" lon="-0.91343">
        <ele>15.46</ele>
        <time>2025-05-22T10:06:43Z</time>
      </trkpt>
      <trkpt lat="45.88199" lon="-0.91324">
        <ele>15.46</ele>
        <time>2025-05-22T10:06:19Z</time>
      </trkpt>
      <trkpt lat="45.88189" lon="-0.913">
        <ele>16.46</ele>
        <time>2025-05-22T10:05:50Z</time>
      </trkpt>
      <trkpt lat="45.88176" lon="-0.91279">
        <ele>15.46</ele>
        <time>2025-05-22T10:05:30Z</time>
      </trkpt>
      <trkpt lat="45.88165" lon="-0.91257">
        <ele>15.46</ele>
        <time>2025-05-22T10:05:10Z</time>
      </trkpt>
      <trkpt lat="45.88145" lon="-0.9125">
        <ele>14.46</ele>
        <time>2025-05-22T10:04:50Z</time>
      </trkpt>
      <trkpt lat="45.88124" lon="-0.91243">
        <ele>15.46</ele>
        <time>2025-05-22T10:04:26Z</time>
      </trkpt>
      <trkpt lat="45.88104" lon="-0.91241">
        <ele>15.46</ele>
        <time>2025-05-22T10:04:06Z</time>
      </trkpt>
      <trkpt lat="45.88089" lon="-0.91259">
        <ele>14.46</ele>
        <time>2025-05-22T10:03:46Z</time>
      </trkpt>
      <trkpt lat="45.88084" lon="-0.91287">
        <ele>13.46</ele>
        <time>2025-05-22T10:03:26Z</time>
      </trkpt>
      <trkpt lat="45.88083" lon="-0.91315">
        <ele>13.46</ele>
        <time>2025-05-22T10:03:06Z</time>
      </trkpt>
      <trkpt lat="45.88079" lon="-0.91343">
        <ele>13.46</ele>
        <time>2025-05-22T10:02:50Z</time>
      </trkpt>
      <trkpt lat="45.88076" lon="-0.91369">
        <ele>13.46</ele>
        <time>2025-05-22T10:02:34Z</time>
      </trkpt>
      <trkpt lat="45.88073" lon="-0.91397">
        <ele>15.46</ele>
        <time>2025-05-22T10:01:26Z</time>
      </trkpt>
      <trkpt lat="45.88053" lon="-0.91402">
        <ele>14.46</ele>
        <time>2025-05-22T10:01:06Z</time>
      </trkpt>
      <trkpt lat="45.88034" lon="-0.914">
        <ele>14.46</ele>
        <time>2025-05-22T10:00:50Z</time>
      </trkpt>
      <trkpt lat="45.88015" lon="-0.91398">
        <ele>13.46</ele>
        <time>2025-05-22T10:00:34Z</time>
      </trkpt>
      <trkpt lat="45.87994" lon="-0.91394">
        <ele>11.46</ele>
        <time>2025-05-22T10:00:14Z</time>
      </trkpt>
      <trkpt lat="45.87975" lon="-0.91392">
        <ele>10.46</ele>
        <time>2025-05-22T09:59:58Z</time>
      </trkpt>
      <trkpt lat="45.87956" lon="-0.91388">
        <ele>10.46</ele>
        <time>2025-05-22T09:59:42Z</time>
      </trkpt>
      <trkpt lat="45.87933" lon="-0.91387">
        <ele>10.46</ele>
        <time>2025-05-22T09:59:22Z</time>
      </trkpt>
      <trkpt lat="45.87916" lon="-0.91372">
        <ele>11.46</ele>
        <time>2025-05-22T09:59:06Z</time>
      </trkpt>
      <trkpt lat="45.87905" lon="-0.91351">
        <ele>12.46</ele>
        <time>2025-05-22T09:58:50Z</time>
      </trkpt>
      <trkpt lat="45.87897" lon="-0.91323">
        <ele>11.46</ele>
        <time>2025-05-22T09:58:34Z</time>
      </trkpt>
      <trkpt lat="45.87885" lon="-0.91301">
        <ele>11.46</ele>
        <time>2025-05-22T09:58:18Z</time>
      </trkpt>
      <trkpt lat="45.87868" lon="-0.91289">
        <ele>12.46</ele>
        <time>2025-05-22T09:58:02Z</time>
      </trkpt>
      <trkpt lat="45.87849" lon="-0.91283">
        <ele>12.46</ele>
        <time>2025-05-22T09:57:46Z</time>
      </trkpt>
      <trkpt lat="45.8783" lon="-0.91282">
        <ele>11.46</ele>
        <time>2025-05-22T09:57:30Z</time>
      </trkpt>
      <trkpt lat="45.8781" lon="-0.91288">
        <ele>10.46</ele>
        <time>2025-05-22T09:57:14Z</time>
      </trkpt>
      <trkpt lat="45.87788" lon="-0.91297">
        <ele>8.46</ele>
        <time>2025-05-22T09:56:54Z</time>
      </trkpt>
      <trkpt lat="45.87769" lon="-0.91301">
        <ele>9.46</ele>
        <time>2025-05-22T09:56:38Z</time>
      </trkpt>
      <trkpt lat="45.87748" lon="-0.91303">
        <ele>11.46</ele>
        <time>2025-05-22T09:56:22Z</time>
      </trkpt>
      <trkpt lat="45.87728" lon="-0.91298">
        <ele>11.46</ele>
        <time>2025-05-22T09:56:06Z</time>
      </trkpt>
      <trkpt lat="45.8771" lon="-0.91287">
        <ele>14.46</ele>
        <time>2025-05-22T09:55:50Z</time>
      </trkpt>
      <trkpt lat="45.87691" lon="-0.9128">
        <ele>14.46</ele>
        <time>2025-05-22T09:55:34Z</time>
      </trkpt>
      <trkpt lat="45.87671" lon="-0.91283">
        <ele>15.46</ele>
        <time>2025-05-22T09:55:18Z</time>
      </trkpt>
      <trkpt lat="45.87655" lon="-0.91296">
        <ele>14.46</ele>
        <time>2025-05-22T09:55:02Z</time>
      </trkpt>
      <trkpt lat="45.87637" lon="-0.91305">
        <ele>15.46</ele>
        <time>2025-05-22T09:54:46Z</time>
      </trkpt>
      <trkpt lat="45.8762" lon="-0.91315">
        <ele>16.46</ele>
        <time>2025-05-22T09:54:30Z</time>
      </trkpt>
      <trkpt lat="45.876" lon="-0.91321">
        <ele>14.46</ele>
        <time>2025-05-22T09:54:14Z</time>
      </trkpt>
      <trkpt lat="45.87581" lon="-0.91324">
        <ele>13.46</ele>
        <time>2025-05-22T09:53:58Z</time>
      </trkpt>
      <trkpt lat="45.87562" lon="-0.91323">
        <ele>14.46</ele>
        <time>2025-05-22T09:53:42Z</time>
      </trkpt>
      <trkpt lat="45.87543" lon="-0.91318">
        <ele>14.46</ele>
        <time>2025-05-22T09:53:26Z</time>
      </trkpt>
      <trkpt lat="45.87523" lon="-0.91315">
        <ele>13.46</ele>
        <time>2025-05-22T09:53:10Z</time>
      </trkpt>
      <trkpt lat="45.87504" lon="-0.91307">
        <ele>13.46</ele>
        <time>2025-05-22T09:52:50Z</time>
      </trkpt>
      <trkpt lat="45.87486" lon="-0.91299">
        <ele>14.46</ele>
        <time>2025-05-22T09:52:34Z</time>
      </trkpt>
      <trkpt lat="45.8747" lon="-0.91284">
        <ele>14.46</ele>
        <time>2025-05-22T09:52:18Z</time>
      </trkpt>
      <trkpt lat="45.87452" lon="-0.91269">
        <ele>14.46</ele>
        <time>2025-05-22T09:52:02Z</time>
      </trkpt>
      <trkpt lat="45.87437" lon="-0.91255">
        <ele>12.46</ele>
        <time>2025-05-22T09:51:46Z</time>
      </trkpt>
      <trkpt lat="45.87422" lon="-0.91238">
        <ele>14.46</ele>
        <time>2025-05-22T09:51:30Z</time>
      </trkpt>
      <trkpt lat="45.87405" lon="-0.91224">
        <ele>13.46</ele>
        <time>2025-05-22T09:51:14Z</time>
      </trkpt>
      <trkpt lat="45.87388" lon="-0.91208">
        <ele>14.46</ele>
        <time>2025-05-22T09:50:58Z</time>
      </trkpt>
      <trkpt lat="45.87369" lon="-0.91194">
        <ele>15.46</ele>
        <time>2025-05-22T09:50:42Z</time>
      </trkpt>
      <trkpt lat="45.87352" lon="-0.91183">
        <ele>13.46</ele>
        <time>2025-05-22T09:50:26Z</time>
      </trkpt>
      <trkpt lat="45.87333" lon="-0.91171">
        <ele>14.46</ele>
        <time>2025-05-22T09:50:10Z</time>
      </trkpt>
      <trkpt lat="45.87314" lon="-0.91156">
        <ele>16.46</ele>
        <time>2025-05-22T09:49:50Z</time>
      </trkpt>
      <trkpt lat="45.87296" lon="-0.91141">
        <ele>16.46</ele>
        <time>2025-05-22T09:49:34Z</time>
      </trkpt>
      <trkpt lat="45.87279" lon="-0.91128">
        <ele>15.46</ele>
        <time>2025-05-22T09:49:18Z</time>
      </trkpt>
      <trkpt lat="45.87263" lon="-0.91116">
        <ele>15.46</ele>
        <time>2025-05-22T09:49:02Z</time>
      </trkpt>
      <trkpt lat="45.87244" lon="-0.91106">
        <ele>14.46</ele>
        <time>2025-05-22T09:48:46Z</time>
      </trkpt>
      <trkpt lat="45.87228" lon="-0.91092">
        <ele>14.46</ele>
        <time>2025-05-22T09:48:30Z</time>
      </trkpt>
      <trkpt lat="45.87209" lon="-0.91081">
        <ele>14.46</ele>
        <time>2025-05-22T09:48:14Z</time>
      </trkpt>
      <trkpt lat="45.87188" lon="-0.91071">
        <ele>14.46</ele>
        <time>2025-05-22T09:47:54Z</time>
      </trkpt>
      <trkpt lat="45.87166" lon="-0.91062">
        <ele>13.46</ele>
        <time>2025-05-22T09:47:34Z</time>
      </trkpt>
      <trkpt lat="45.87147" lon="-0.91055">
        <ele>15.46</ele>
        <time>2025-05-22T09:47:18Z</time>
      </trkpt>
      <trkpt lat="45.87126" lon="-0.91051">
        <ele>14.46</ele>
        <time>2025-05-22T09:47:02Z</time>
      </trkpt>
      <trkpt lat="45.87108" lon="-0.9105">
        <ele>15.46</ele>
        <time>2025-05-22T09:46:46Z</time>
      </trkpt>
      <trkpt lat="45.87086" lon="-0.91047">
        <ele>17.46</ele>
        <time>2025-05-22T09:46:26Z</time>
      </trkpt>
      <trkpt lat="45.87065" lon="-0.91051">
        <ele>18.46</ele>
        <time>2025-05-22T09:46:10Z</time>
      </trkpt>
      <trkpt lat="45.87045" lon="-0.91052">
        <ele>16.46</ele>
        <time>2025-05-22T09:45:54Z</time>
      </trkpt>
      <trkpt lat="45.87027" lon="-0.91049">
        <ele>17.46</ele>
        <time>2025-05-22T09:45:38Z</time>
      </trkpt>
      <trkpt lat="45.87007" lon="-0.91048">
        <ele>17.46</ele>
        <time>2025-05-22T09:45:22Z</time>
      </trkpt>
      <trkpt lat="45.86985" lon="-0.91049">
        <ele>16.46</ele>
        <time>2025-05-22T09:45:06Z</time>
      </trkpt>
      <trkpt lat="45.86966" lon="-0.91053">
        <ele>16.46</ele>
        <time>2025-05-22T09:44:50Z</time>
      </trkpt>
      <trkpt lat="45.86945" lon="-0.91053">
        <ele>16.46</ele>
        <time>2025-05-22T09:44:30Z</time>
      </trkpt>
      <trkpt lat="45.86924" lon="-0.91054">
        <ele>14.46</ele>
        <time>2025-05-22T09:44:14Z</time>
      </trkpt>
      <trkpt lat="45.86903" lon="-0.91053">
        <ele>13.46</ele>
        <time>2025-05-22T09:43:58Z</time>
      </trkpt>
      <trkpt lat="45.86884" lon="-0.91053">
        <ele>12.46</ele>
        <time>2025-05-22T09:43:42Z</time>
      </trkpt>
      <trkpt lat="45.86866" lon="-0.91047">
        <ele>16.46</ele>
        <time>2025-05-22T09:43:26Z</time>
      </trkpt>
      <trkpt lat="45.86844" lon="-0.91045">
        <ele>15.46</ele>
        <time>2025-05-22T09:43:10Z</time>
      </trkpt>
      <trkpt lat="45.8682" lon="-0.91047">
        <ele>15.46</ele>
        <time>2025-05-22T09:42:50Z</time>
      </trkpt>
      <trkpt lat="45.868" lon="-0.91049">
        <ele>15.46</ele>
        <time>2025-05-22T09:42:34Z</time>
      </trkpt>
      <trkpt lat="45.8678" lon="-0.91051">
        <ele>16.46</ele>
        <time>2025-05-22T09:42:18Z</time>
      </trkpt>
      <trkpt lat="45.86762" lon="-0.91055">
        <ele>17.46</ele>
        <time>2025-05-22T09:42:02Z</time>
      </trkpt>
      <trkpt lat="45.86745" lon="-0.91069">
        <ele>17.46</ele>
        <time>2025-05-22T09:41:46Z</time>
      </trkpt>
      <trkpt lat="45.86726" lon="-0.91081">
        <ele>16.46</ele>
        <time>2025-05-22T09:41:30Z</time>
      </trkpt>
      <trkpt lat="45.8671" lon="-0.91094">
        <ele>15.46</ele>
        <time>2025-05-22T09:41:14Z</time>
      </trkpt>
      <trkpt lat="45.86694" lon="-0.91111">
        <ele>16.46</ele>
        <time>2025-05-22T09:40:58Z</time>
      </trkpt>
      <trkpt lat="45.86679" lon="-0.91128">
        <ele>15.46</ele>
        <time>2025-05-22T09:40:42Z</time>
      </trkpt>
      <trkpt lat="45.86662" lon="-0.91145">
        <ele>14.46</ele>
        <time>2025-05-22T09:40:26Z</time>
      </trkpt>
      <trkpt lat="45.86645" lon="-0.91153">
        <ele>12.46</ele>
        <time>2025-05-22T09:40:10Z</time>
      </trkpt>
      <trkpt lat="45.86624" lon="-0.91156">
        <ele>12.46</ele>
        <time>2025-05-22T09:39:54Z</time>
      </trkpt>
      <trkpt lat="45.86605" lon="-0.91148">
        <ele>10.46</ele>
        <time>2025-05-22T09:39:34Z</time>
      </trkpt>
      <trkpt lat="45.86588" lon="-0.91137">
        <ele>10.46</ele>
        <time>2025-05-22T09:39:18Z</time>
      </trkpt>
      <trkpt lat="45.8657" lon="-0.91125">
        <ele>9.46</ele>
        <time>2025-05-22T09:39:02Z</time>
      </trkpt>
      <trkpt lat="45.86552" lon="-0.91114">
        <ele>9.46</ele>
        <time>2025-05-22T09:38:46Z</time>
      </trkpt>
      <trkpt lat="45.86535" lon="-0.91099">
        <ele>10.46</ele>
        <time>2025-05-22T09:38:30Z</time>
      </trkpt>
      <trkpt lat="45.86515" lon="-0.91082">
        <ele>12.46</ele>
        <time>2025-05-22T09:38:10Z</time>
      </trkpt>
      <trkpt lat="45.86499" lon="-0.91069">
        <ele>13.46</ele>
        <time>2025-05-22T09:37:54Z</time>
      </trkpt>
      <trkpt lat="45.86482" lon="-0.91054">
        <ele>11.46</ele>
        <time>2025-05-22T09:37:38Z</time>
      </trkpt>
      <trkpt lat="45.86462" lon="-0.91038">
        <ele>9.46</ele>
        <time>2025-05-22T09:37:18Z</time>
      </trkpt>
      <trkpt lat="45.86448" lon="-0.91018">
        <ele>10.46</ele>
        <time>2025-05-22T09:37:02Z</time>
      </trkpt>
      <trkpt lat="45.86436" lon="-0.90996">
        <ele>9.46</ele>
        <time>2025-05-22T09:36:46Z</time>
      </trkpt>
      <trkpt lat="45.86415" lon="-0.90989">
        <ele>11.46</ele>
        <time>2025-05-22T09:36:26Z</time>
      </trkpt>
      <trkpt lat="45.86396" lon="-0.91003">
        <ele>12.46</ele>
        <time>2025-05-22T09:36:06Z</time>
      </trkpt>
      <trkpt lat="45.86376" lon="-0.91009">
        <ele>12.46</ele>
        <time>2025-05-22T09:35:50Z</time>
      </trkpt>
      <trkpt lat="45.86357" lon="-0.91011">
        <ele>13.46</ele>
        <time>2025-05-22T09:35:34Z</time>
      </trkpt>
      <trkpt lat="45.86335" lon="-0.91013">
        <ele>19.46</ele>
        <time>2025-05-22T09:35:18Z</time>
      </trkpt>
      <trkpt lat="45.86314" lon="-0.91017">
        <ele>20.46</ele>
        <time>2025-05-22T09:34:58Z</time>
      </trkpt>
      <trkpt lat="45.86297" lon="-0.91027">
        <ele>20.46</ele>
        <time>2025-05-22T09:34:42Z</time>
      </trkpt>
      <trkpt lat="45.86277" lon="-0.91044">
        <ele>19.46</ele>
        <time>2025-05-22T09:34:22Z</time>
      </trkpt>
      <trkpt lat="45.86264" lon="-0.91063">
        <ele>21.46</ele>
        <time>2025-05-22T09:34:01Z</time>
      </trkpt>
      <trkpt lat="45.86249" lon="-0.91082">
        <ele>19.46</ele>
        <time>2025-05-22T09:33:36Z</time>
      </trkpt>
      <trkpt lat="45.8623" lon="-0.9108">
        <ele>27.46</ele>
        <time>2025-05-22T09:33:04Z</time>
      </trkpt>
      <trkpt lat="45.86211" lon="-0.91086">
        <ele>29.46</ele>
        <time>2025-05-22T09:32:44Z</time>
      </trkpt>
      <trkpt lat="45.8619" lon="-0.91085">
        <ele>28.46</ele>
        <time>2025-05-22T09:32:24Z</time>
      </trkpt>
      <trkpt lat="45.86169" lon="-0.9108">
        <ele>29.46</ele>
        <time>2025-05-22T09:32:08Z</time>
      </trkpt>
      <trkpt lat="45.8615" lon="-0.91074">
        <ele>29.46</ele>
        <time>2025-05-22T09:31:52Z</time>
      </trkpt>
      <trkpt lat="45.86132" lon="-0.91062">
        <ele>30.46</ele>
        <time>2025-05-22T09:31:36Z</time>
      </trkpt>
      <trkpt lat="45.86117" lon="-0.91047">
        <ele>37.46</ele>
        <time>2025-05-22T09:31:20Z</time>
      </trkpt>
      <trkpt lat="45.86101" lon="-0.91034">
        <ele>36.46</ele>
        <time>2025-05-22T09:31:04Z</time>
      </trkpt>
      <trkpt lat="45.86084" lon="-0.91028">
        <ele>37.46</ele>
        <time>2025-05-22T09:30:48Z</time>
      </trkpt>
      <trkpt lat="45.86064" lon="-0.91025">
        <ele>35.46</ele>
        <time>2025-05-22T09:30:24Z</time>
      </trkpt>
      <trkpt lat="45.86044" lon="-0.91027">
        <ele>32.46</ele>
        <time>2025-05-22T09:30:04Z</time>
      </trkpt>
      <trkpt lat="45.86024" lon="-0.91038">
        <ele>31.46</ele>
        <time>2025-05-22T09:29:44Z</time>
      </trkpt>
      <trkpt lat="45.86005" lon="-0.91047">
        <ele>31.46</ele>
        <time>2025-05-22T09:29:24Z</time>
      </trkpt>
      <trkpt lat="45.85986" lon="-0.91043">
        <ele>29.46</ele>
        <time>2025-05-22T09:29:08Z</time>
      </trkpt>
      <trkpt lat="45.85968" lon="-0.91036">
        <ele>25.46</ele>
        <time>2025-05-22T09:28:48Z</time>
      </trkpt>
      <trkpt lat="45.85949" lon="-0.91029">
        <ele>22.46</ele>
        <time>2025-05-22T09:28:28Z</time>
      </trkpt>
      <trkpt lat="45.85929" lon="-0.9102">
        <ele>23.46</ele>
        <time>2025-05-22T09:28:08Z</time>
      </trkpt>
      <trkpt lat="45.85912" lon="-0.91009">
        <ele>24.46</ele>
        <time>2025-05-22T09:27:44Z</time>
      </trkpt>
      <trkpt lat="45.85899" lon="-0.9099">
        <ele>24.46</ele>
        <time>2025-05-22T09:27:24Z</time>
      </trkpt>
      <trkpt lat="45.85888" lon="-0.90965">
        <ele>26.46</ele>
        <time>2025-05-22T09:27:04Z</time>
      </trkpt>
      <trkpt lat="45.85875" lon="-0.90939">
        <ele>26.46</ele>
        <time>2025-05-22T09:26:44Z</time>
      </trkpt>
      <trkpt lat="45.85859" lon="-0.90915">
        <ele>27.46</ele>
        <time>2025-05-22T09:26:20Z</time>
      </trkpt>
      <trkpt lat="45.85844" lon="-0.90929">
        <ele>28.46</ele>
        <time>2025-05-22T09:26:04Z</time>
      </trkpt>
      <trkpt lat="45.85825" lon="-0.90933">
        <ele>30.46</ele>
        <time>2025-05-22T09:25:04Z</time>
      </trkpt>
      <trkpt lat="45.85809" lon="-0.90946">
        <ele>31.46</ele>
        <time>2025-05-22T09:24:32Z</time>
      </trkpt>
      <trkpt lat="45.85791" lon="-0.90956">
        <ele>31.46</ele>
        <time>2025-05-22T09:24:12Z</time>
      </trkpt>
      <trkpt lat="45.85775" lon="-0.90969">
        <ele>32.46</ele>
        <time>2025-05-22T09:23:52Z</time>
      </trkpt>
      <trkpt lat="45.85755" lon="-0.90982">
        <ele>30.46</ele>
        <time>2025-05-22T09:22:40Z</time>
      </trkpt>
      <trkpt lat="45.85735" lon="-0.90994">
        <ele>29.46</ele>
        <time>2025-05-22T09:22:24Z</time>
      </trkpt>
      <trkpt lat="45.85719" lon="-0.91007">
        <ele>29.46</ele>
        <time>2025-05-22T09:22:08Z</time>
      </trkpt>
      <trkpt lat="45.85702" lon="-0.91018">
        <ele>28.46</ele>
        <time>2025-05-22T09:21:52Z</time>
      </trkpt>
      <trkpt lat="45.85685" lon="-0.9103">
        <ele>28.46</ele>
        <time>2025-05-22T09:21:36Z</time>
      </trkpt>
      <trkpt lat="45.85668" lon="-0.91042">
        <ele>29.46</ele>
        <time>2025-05-22T09:21:20Z</time>
      </trkpt>
      <trkpt lat="45.8565" lon="-0.91052">
        <ele>28.46</ele>
        <time>2025-05-22T09:21:04Z</time>
      </trkpt>
      <trkpt lat="45.85633" lon="-0.91063">
        <ele>29.46</ele>
        <time>2025-05-22T09:20:48Z</time>
      </trkpt>
      <trkpt lat="45.85614" lon="-0.9107">
        <ele>28.46</ele>
        <time>2025-05-22T09:20:32Z</time>
      </trkpt>
      <trkpt lat="45.85594" lon="-0.91082">
        <ele>28.46</ele>
        <time>2025-05-22T09:20:16Z</time>
      </trkpt>
      <trkpt lat="45.85573" lon="-0.91095">
        <ele>26.46</ele>
        <time>2025-05-22T09:19:56Z</time>
      </trkpt>
      <trkpt lat="45.85553" lon="-0.91107">
        <ele>26.46</ele>
        <time>2025-05-22T09:19:36Z</time>
      </trkpt>
      <trkpt lat="45.85535" lon="-0.9111">
        <ele>26.46</ele>
        <time>2025-05-22T09:19:20Z</time>
      </trkpt>
      <trkpt lat="45.85513" lon="-0.91114">
        <ele>27.46</ele>
        <time>2025-05-22T09:19:00Z</time>
      </trkpt>
      <trkpt lat="45.85494" lon="-0.91121">
        <ele>26.46</ele>
        <time>2025-05-22T09:18:44Z</time>
      </trkpt>
      <trkpt lat="45.85475" lon="-0.91126">
        <ele>25.46</ele>
        <time>2025-05-22T09:18:28Z</time>
      </trkpt>
      <trkpt lat="45.85456" lon="-0.91132">
        <ele>25.46</ele>
        <time>2025-05-22T09:18:12Z</time>
      </trkpt>
      <trkpt lat="45.85438" lon="-0.91137">
        <ele>25.46</ele>
        <time>2025-05-22T09:17:56Z</time>
      </trkpt>
      <trkpt lat="45.85418" lon="-0.91143">
        <ele>25.46</ele>
        <time>2025-05-22T09:17:40Z</time>
      </trkpt>
      <trkpt lat="45.85398" lon="-0.91149">
        <ele>25.46</ele>
        <time>2025-05-22T09:17:24Z</time>
      </trkpt>
      <trkpt lat="45.85378" lon="-0.91156">
        <ele>25.46</ele>
        <time>2025-05-22T09:17:08Z</time>
      </trkpt>
      <trkpt lat="45.8536" lon="-0.91159">
        <ele>24.46</ele>
        <time>2025-05-22T09:16:52Z</time>
      </trkpt>
      <trkpt lat="45.85341" lon="-0.91164">
        <ele>26.46</ele>
        <time>2025-05-22T09:16:36Z</time>
      </trkpt>
      <trkpt lat="45.85322" lon="-0.9117">
        <ele>26.46</ele>
        <time>2025-05-22T09:16:20Z</time>
      </trkpt>
      <trkpt lat="45.85303" lon="-0.91176">
        <ele>26.46</ele>
        <time>2025-05-22T09:16:04Z</time>
      </trkpt>
      <trkpt lat="45.85283" lon="-0.91181">
        <ele>26.46</ele>
        <time>2025-05-22T09:15:48Z</time>
      </trkpt>
      <trkpt lat="45.85265" lon="-0.91185">
        <ele>26.46</ele>
        <time>2025-05-22T09:15:32Z</time>
      </trkpt>
      <trkpt lat="45.85246" lon="-0.9119">
        <ele>26.46</ele>
        <time>2025-05-22T09:15:16Z</time>
      </trkpt>
      <trkpt lat="45.85226" lon="-0.91194">
        <ele>26.46</ele>
        <time>2025-05-22T09:15:00Z</time>
      </trkpt>
      <trkpt lat="45.85207" lon="-0.91201">
        <ele>27.46</ele>
        <time>2025-05-22T09:14:44Z</time>
      </trkpt>
      <trkpt lat="45.85188" lon="-0.91206">
        <ele>28.46</ele>
        <time>2025-05-22T09:14:28Z</time>
      </trkpt>
      <trkpt lat="45.8517" lon="-0.91217">
        <ele>29.46</ele>
        <time>2025-05-22T09:14:12Z</time>
      </trkpt>
      <trkpt lat="45.85154" lon="-0.91232">
        <ele>29.46</ele>
        <time>2025-05-22T09:13:56Z</time>
      </trkpt>
      <trkpt lat="45.85139" lon="-0.91249">
        <ele>29.46</ele>
        <time>2025-05-22T09:13:40Z</time>
      </trkpt>
      <trkpt lat="45.8512" lon="-0.91269">
        <ele>27.46</ele>
        <time>2025-05-22T09:13:20Z</time>
      </trkpt>
      <trkpt lat="45.85103" lon="-0.91278">
        <ele>27.46</ele>
        <time>2025-05-22T09:12:56Z</time>
      </trkpt>
      <trkpt lat="45.85083" lon="-0.91279">
        <ele>26.46</ele>
        <time>2025-05-22T09:12:40Z</time>
      </trkpt>
      <trkpt lat="45.85062" lon="-0.91281">
        <ele>26.46</ele>
        <time>2025-05-22T09:12:24Z</time>
      </trkpt>
      <trkpt lat="45.85042" lon="-0.9128">
        <ele>27.46</ele>
        <time>2025-05-22T09:12:08Z</time>
      </trkpt>
      <trkpt lat="45.85024" lon="-0.91283">
        <ele>30.46</ele>
        <time>2025-05-22T09:11:52Z</time>
      </trkpt>
      <trkpt lat="45.85002" lon="-0.91289">
        <ele>32.46</ele>
        <time>2025-05-22T09:11:36Z</time>
      </trkpt>
      <trkpt lat="45.8498" lon="-0.91288">
        <ele>32.46</ele>
        <time>2025-05-22T09:11:16Z</time>
      </trkpt>
      <trkpt lat="45.8496" lon="-0.9129">
        <ele>32.46</ele>
        <time>2025-05-22T09:11:00Z</time>
      </trkpt>
      <trkpt lat="45.84941" lon="-0.91289">
        <ele>30.46</ele>
        <time>2025-05-22T09:10:44Z</time>
      </trkpt>
      <trkpt lat="45.84918" lon="-0.91282">
        <ele>28.46</ele>
        <time>2025-05-22T09:10:24Z</time>
      </trkpt>
      <trkpt lat="45.84901" lon="-0.91268">
        <ele>28.46</ele>
        <time>2025-05-22T09:10:08Z</time>
      </trkpt>
      <trkpt lat="45.84882" lon="-0.91257">
        <ele>26.46</ele>
        <time>2025-05-22T09:09:52Z</time>
      </trkpt>
      <trkpt lat="45.84864" lon="-0.91247">
        <ele>23.46</ele>
        <time>2025-05-22T09:09:36Z</time>
      </trkpt>
      <trkpt lat="45.84846" lon="-0.91233">
        <ele>22.46</ele>
        <time>2025-05-22T09:09:20Z</time>
      </trkpt>
      <trkpt lat="45.84829" lon="-0.91224">
        <ele>18.46</ele>
        <time>2025-05-22T09:09:04Z</time>
      </trkpt>
      <trkpt lat="45.8481" lon="-0.91216">
        <ele>16.46</ele>
        <time>2025-05-22T09:08:44Z</time>
      </trkpt>
      <trkpt lat="45.84804" lon="-0.91189">
        <ele>18.46</ele>
        <time>2025-05-22T09:08:24Z</time>
      </trkpt>
      <trkpt lat="45.84794" lon="-0.91163">
        <ele>20.46</ele>
        <time>2025-05-22T09:08:08Z</time>
      </trkpt>
      <trkpt lat="45.84781" lon="-0.91141">
        <ele>17.46</ele>
        <time>2025-05-22T09:07:52Z</time>
      </trkpt>
      <trkpt lat="45.84769" lon="-0.91116">
        <ele>15.46</ele>
        <time>2025-05-22T09:07:36Z</time>
      </trkpt>
      <trkpt lat="45.84757" lon="-0.91094">
        <ele>15.46</ele>
        <time>2025-05-22T09:07:20Z</time>
      </trkpt>
      <trkpt lat="45.84747" lon="-0.91067">
        <ele>16.46</ele>
        <time>2025-05-22T09:07:04Z</time>
      </trkpt>
      <trkpt lat="45.84733" lon="-0.91042">
        <ele>17.46</ele>
        <time>2025-05-22T09:06:44Z</time>
      </trkpt>
      <trkpt lat="45.84724" lon="-0.91016">
        <ele>18.46</ele>
        <time>2025-05-22T09:06:28Z</time>
      </trkpt>
      <trkpt lat="45.84714" lon="-0.90992">
        <ele>18.46</ele>
        <time>2025-05-22T09:06:12Z</time>
      </trkpt>
      <trkpt lat="45.84702" lon="-0.90966">
        <ele>19.46</ele>
        <time>2025-05-22T09:05:56Z</time>
      </trkpt>
      <trkpt lat="45.84687" lon="-0.90944">
        <ele>20.46</ele>
        <time>2025-05-22T09:05:40Z</time>
      </trkpt>
      <trkpt lat="45.84672" lon="-0.90925">
        <ele>21.46</ele>
        <time>2025-05-22T09:05:24Z</time>
      </trkpt>
      <trkpt lat="45.84658" lon="-0.90908">
        <ele>21.46</ele>
        <time>2025-05-22T09:05:08Z</time>
      </trkpt>
      <trkpt lat="45.8464" lon="-0.9089">
        <ele>20.46</ele>
        <time>2025-05-22T09:04:52Z</time>
      </trkpt>
      <trkpt lat="45.84623" lon="-0.90872">
        <ele>20.46</ele>
        <time>2025-05-22T09:04:36Z</time>
      </trkpt>
      <trkpt lat="45.8461" lon="-0.90852">
        <ele>21.46</ele>
        <time>2025-05-22T09:04:20Z</time>
      </trkpt>
      <trkpt lat="45.84593" lon="-0.90835">
        <ele>21.46</ele>
        <time>2025-05-22T09:04:04Z</time>
      </trkpt>
      <trkpt lat="45.84577" lon="-0.90814">
        <ele>22.46</ele>
        <time>2025-05-22T09:03:48Z</time>
      </trkpt>
      <trkpt lat="45.84561" lon="-0.90796">
        <ele>20.46</ele>
        <time>2025-05-22T09:03:32Z</time>
      </trkpt>
      <trkpt lat="45.84544" lon="-0.90782">
        <ele>19.46</ele>
        <time>2025-05-22T09:03:16Z</time>
      </trkpt>
      <trkpt lat="45.84527" lon="-0.90768">
        <ele>19.46</ele>
        <time>2025-05-22T09:02:56Z</time>
      </trkpt>
      <trkpt lat="45.8451" lon="-0.90757">
        <ele>19.46</ele>
        <time>2025-05-22T09:02:40Z</time>
      </trkpt>
      <trkpt lat="45.84492" lon="-0.90739">
        <ele>19.46</ele>
        <time>2025-05-22T09:02:20Z</time>
      </trkpt>
      <trkpt lat="45.84479" lon="-0.90718">
        <ele>17.46</ele>
        <time>2025-05-22T09:02:04Z</time>
      </trkpt>
      <trkpt lat="45.84469" lon="-0.90691">
        <ele>16.46</ele>
        <time>2025-05-22T09:01:48Z</time>
      </trkpt>
      <trkpt lat="45.84461" lon="-0.90662">
        <ele>17.46</ele>
        <time>2025-05-22T09:01:28Z</time>
      </trkpt>
      <trkpt lat="45.84451" lon="-0.90638">
        <ele>17.46</ele>
        <time>2025-05-22T09:01:12Z</time>
      </trkpt>
      <trkpt lat="45.84442" lon="-0.90613">
        <ele>16.46</ele>
        <time>2025-05-22T09:00:56Z</time>
      </trkpt>
      <trkpt lat="45.84432" lon="-0.90587">
        <ele>16.46</ele>
        <time>2025-05-22T09:00:40Z</time>
      </trkpt>
      <trkpt lat="45.84423" lon="-0.90564">
        <ele>21.46</ele>
        <time>2025-05-22T09:00:24Z</time>
      </trkpt>
      <trkpt lat="45.84414" lon="-0.90539">
        <ele>19.46</ele>
        <time>2025-05-22T09:00:08Z</time>
      </trkpt>
      <trkpt lat="45.84404" lon="-0.90516">
        <ele>18.46</ele>
        <time>2025-05-22T08:59:52Z</time>
      </trkpt>
      <trkpt lat="45.84391" lon="-0.90492">
        <ele>16.46</ele>
        <time>2025-05-22T08:59:32Z</time>
      </trkpt>
      <trkpt lat="45.84374" lon="-0.90471">
        <ele>16.46</ele>
        <time>2025-05-22T08:59:12Z</time>
      </trkpt>
      <trkpt lat="45.84356" lon="-0.90458">
        <ele>15.46</ele>
        <time>2025-05-22T08:58:56Z</time>
      </trkpt>
      <trkpt lat="45.84336" lon="-0.9045">
        <ele>15.46</ele>
        <time>2025-05-22T08:58:40Z</time>
      </trkpt>
      <trkpt lat="45.84319" lon="-0.9044">
        <ele>15.46</ele>
        <time>2025-05-22T08:58:24Z</time>
      </trkpt>
      <trkpt lat="45.84301" lon="-0.90421">
        <ele>15.46</ele>
        <time>2025-05-22T08:58:04Z</time>
      </trkpt>
      <trkpt lat="45.84282" lon="-0.90408">
        <ele>14.46</ele>
        <time>2025-05-22T08:57:48Z</time>
      </trkpt>
      <trkpt lat="45.84264" lon="-0.90396">
        <ele>14.46</ele>
        <time>2025-05-22T08:57:32Z</time>
      </trkpt>
      <trkpt lat="45.84244" lon="-0.90381">
        <ele>12.46</ele>
        <time>2025-05-22T08:57:12Z</time>
      </trkpt>
      <trkpt lat="45.84226" lon="-0.90367">
        <ele>13.46</ele>
        <time>2025-05-22T08:56:56Z</time>
      </trkpt>
      <trkpt lat="45.84207" lon="-0.90355">
        <ele>13.46</ele>
        <time>2025-05-22T08:56:40Z</time>
      </trkpt>
      <trkpt lat="45.84191" lon="-0.90339">
        <ele>12.46</ele>
        <time>2025-05-22T08:56:24Z</time>
      </trkpt>
      <trkpt lat="45.84174" lon="-0.90327">
        <ele>11.46</ele>
        <time>2025-05-22T08:56:08Z</time>
      </trkpt>
      <trkpt lat="45.84155" lon="-0.90313">
        <ele>12.46</ele>
        <time>2025-05-22T08:55:52Z</time>
      </trkpt>
      <trkpt lat="45.84136" lon="-0.90301">
        <ele>13.46</ele>
        <time>2025-05-22T08:55:36Z</time>
      </trkpt>
      <trkpt lat="45.84117" lon="-0.90285">
        <ele>12.46</ele>
        <time>2025-05-22T08:55:20Z</time>
      </trkpt>
      <trkpt lat="45.841" lon="-0.9027">
        <ele>12.46</ele>
        <time>2025-05-22T08:55:04Z</time>
      </trkpt>
      <trkpt lat="45.84082" lon="-0.90253">
        <ele>11.46</ele>
        <time>2025-05-22T08:54:48Z</time>
      </trkpt>
      <trkpt lat="45.84064" lon="-0.90235">
        <ele>12.46</ele>
        <time>2025-05-22T08:54:32Z</time>
      </trkpt>
      <trkpt lat="45.84044" lon="-0.90215">
        <ele>14.46</ele>
        <time>2025-05-22T08:54:16Z</time>
      </trkpt>
      <trkpt lat="45.84027" lon="-0.90201">
        <ele>16.46</ele>
        <time>2025-05-22T08:54:00Z</time>
      </trkpt>
      <trkpt lat="45.84009" lon="-0.9019">
        <ele>17.46</ele>
        <time>2025-05-22T08:53:44Z</time>
      </trkpt>
      <trkpt lat="45.8399" lon="-0.90181">
        <ele>18.46</ele>
        <time>2025-05-22T08:53:28Z</time>
      </trkpt>
      <trkpt lat="45.83972" lon="-0.90179">
        <ele>19.46</ele>
        <time>2025-05-22T08:53:12Z</time>
      </trkpt>
      <trkpt lat="45.83952" lon="-0.90175">
        <ele>20.46</ele>
        <time>2025-05-22T08:52:56Z</time>
      </trkpt>
      <trkpt lat="45.83933" lon="-0.90174">
        <ele>20.46</ele>
        <time>2025-05-22T08:52:40Z</time>
      </trkpt>
      <trkpt lat="45.83912" lon="-0.90173">
        <ele>20.46</ele>
        <time>2025-05-22T08:52:24Z</time>
      </trkpt>
      <trkpt lat="45.83891" lon="-0.90171">
        <ele>19.46</ele>
        <time>2025-05-22T08:52:08Z</time>
      </trkpt>
      <trkpt lat="45.83872" lon="-0.90169">
        <ele>19.46</ele>
        <time>2025-05-22T08:51:52Z</time>
      </trkpt>
      <trkpt lat="45.83853" lon="-0.90165">
        <ele>17.46</ele>
        <time>2025-05-22T08:51:36Z</time>
      </trkpt>
      <trkpt lat="45.83831" lon="-0.90162">
        <ele>17.46</ele>
        <time>2025-05-22T08:51:16Z</time>
      </trkpt>
      <trkpt lat="45.83809" lon="-0.9016">
        <ele>18.46</ele>
        <time>2025-05-22T08:50:56Z</time>
      </trkpt>
      <trkpt lat="45.8379" lon="-0.90158">
        <ele>19.46</ele>
        <time>2025-05-22T08:50:40Z</time>
      </trkpt>
      <trkpt lat="45.8377" lon="-0.90156">
        <ele>20.46</ele>
        <time>2025-05-22T08:50:24Z</time>
      </trkpt>
      <trkpt lat="45.8375" lon="-0.90157">
        <ele>20.46</ele>
        <time>2025-05-22T08:50:08Z</time>
      </trkpt>
      <trkpt lat="45.83729" lon="-0.90156">
        <ele>21.46</ele>
        <time>2025-05-22T08:49:52Z</time>
      </trkpt>
      <trkpt lat="45.8371" lon="-0.90162">
        <ele>21.46</ele>
        <time>2025-05-22T08:49:36Z</time>
      </trkpt>
      <trkpt lat="45.83689" lon="-0.90168">
        <ele>21.46</ele>
        <time>2025-05-22T08:49:20Z</time>
      </trkpt>
      <trkpt lat="45.83669" lon="-0.90175">
        <ele>22.46</ele>
        <time>2025-05-22T08:49:04Z</time>
      </trkpt>
      <trkpt lat="45.8365" lon="-0.90183">
        <ele>21.46</ele>
        <time>2025-05-22T08:48:48Z</time>
      </trkpt>
      <trkpt lat="45.83632" lon="-0.90195">
        <ele>22.46</ele>
        <time>2025-05-22T08:48:32Z</time>
      </trkpt>
      <trkpt lat="45.83614" lon="-0.90211">
        <ele>23.46</ele>
        <time>2025-05-22T08:48:16Z</time>
      </trkpt>
      <trkpt lat="45.83599" lon="-0.90226">
        <ele>22.46</ele>
        <time>2025-05-22T08:48:00Z</time>
      </trkpt>
      <trkpt lat="45.83581" lon="-0.90243">
        <ele>22.46</ele>
        <time>2025-05-22T08:47:44Z</time>
      </trkpt>
      <trkpt lat="45.83567" lon="-0.90264">
        <ele>21.46</ele>
        <time>2025-05-22T08:47:28Z</time>
      </trkpt>
      <trkpt lat="45.83552" lon="-0.90284">
        <ele>20.46</ele>
        <time>2025-05-22T08:47:12Z</time>
      </trkpt>
      <trkpt lat="45.83539" lon="-0.90305">
        <ele>20.46</ele>
        <time>2025-05-22T08:46:56Z</time>
      </trkpt>
      <trkpt lat="45.83525" lon="-0.90326">
        <ele>22.46</ele>
        <time>2025-05-22T08:46:40Z</time>
      </trkpt>
      <trkpt lat="45.8351" lon="-0.90348">
        <ele>20.46</ele>
        <time>2025-05-22T08:46:24Z</time>
      </trkpt>
      <trkpt lat="45.83496" lon="-0.90366">
        <ele>20.46</ele>
        <time>2025-05-22T08:46:08Z</time>
      </trkpt>
      <trkpt lat="45.8348" lon="-0.90385">
        <ele>18.46</ele>
        <time>2025-05-22T08:45:52Z</time>
      </trkpt>
      <trkpt lat="45.83465" lon="-0.90403">
        <ele>17.46</ele>
        <time>2025-05-22T08:45:36Z</time>
      </trkpt>
      <trkpt lat="45.8345" lon="-0.90422">
        <ele>18.46</ele>
        <time>2025-05-22T08:45:20Z</time>
      </trkpt>
      <trkpt lat="45.83433" lon="-0.90438">
        <ele>18.46</ele>
        <time>2025-05-22T08:45:04Z</time>
      </trkpt>
      <trkpt lat="45.83414" lon="-0.90456">
        <ele>19.46</ele>
        <time>2025-05-22T08:44:44Z</time>
      </trkpt>
      <trkpt lat="45.83399" lon="-0.90473">
        <ele>18.46</ele>
        <time>2025-05-22T08:44:28Z</time>
      </trkpt>
      <trkpt lat="45.8338" lon="-0.9049">
        <ele>18.46</ele>
        <time>2025-05-22T08:43:48Z</time>
      </trkpt>
      <trkpt lat="45.83379" lon="-0.90518">
        <ele>13.46</ele>
        <time>2025-05-22T08:33:40Z</time>
      </trkpt>
      <trkpt lat="45.83394" lon="-0.90536">
        <ele>13.46</ele>
        <time>2025-05-22T08:33:24Z</time>
      </trkpt>
      <trkpt lat="45.83408" lon="-0.90559">
        <ele>12.46</ele>
        <time>2025-05-22T08:33:08Z</time>
      </trkpt>
      <trkpt lat="45.83421" lon="-0.90583">
        <ele>14.46</ele>
        <time>2025-05-22T08:32:48Z</time>
      </trkpt>
      <trkpt lat="45.83434" lon="-0.90606">
        <ele>14.46</ele>
        <time>2025-05-22T08:32:32Z</time>
      </trkpt>
      <trkpt lat="45.83448" lon="-0.9063">
        <ele>15.46</ele>
        <time>2025-05-22T08:32:12Z</time>
      </trkpt>
      <trkpt lat="45.83461" lon="-0.90652">
        <ele>14.46</ele>
        <time>2025-05-22T08:31:56Z</time>
      </trkpt>
      <trkpt lat="45.83475" lon="-0.90672">
        <ele>12.46</ele>
        <time>2025-05-22T08:31:40Z</time>
      </trkpt>
      <trkpt lat="45.83489" lon="-0.90693">
        <ele>12.46</ele>
        <time>2025-05-22T08:31:24Z</time>
      </trkpt>
      <trkpt lat="45.83503" lon="-0.90712">
        <ele>13.46</ele>
        <time>2025-05-22T08:31:08Z</time>
      </trkpt>
      <trkpt lat="45.83519" lon="-0.90731">
        <ele>11.46</ele>
        <time>2025-05-22T08:30:52Z</time>
      </trkpt>
      <trkpt lat="45.83532" lon="-0.90749">
        <ele>13.46</ele>
        <time>2025-05-22T08:30:36Z</time>
      </trkpt>
      <trkpt lat="45.83542" lon="-0.90774">
        <ele>14.46</ele>
        <time>2025-05-22T08:30:20Z</time>
      </trkpt>
      <trkpt lat="45.83546" lon="-0.90803">
        <ele>13.46</ele>
        <time>2025-05-22T08:30:04Z</time>
      </trkpt>
      <trkpt lat="45.83547" lon="-0.90829">
        <ele>13.46</ele>
        <time>2025-05-22T08:29:48Z</time>
      </trkpt>
      <trkpt lat="45.83553" lon="-0.90858">
        <ele>14.46</ele>
        <time>2025-05-22T08:29:32Z</time>
      </trkpt>
      <trkpt lat="45.83564" lon="-0.90886">
        <ele>16.46</ele>
        <time>2025-05-22T08:29:16Z</time>
      </trkpt>
      <trkpt lat="45.83572" lon="-0.90909">
        <ele>15.46</ele>
        <time>2025-05-22T08:29:00Z</time>
      </trkpt>
      <trkpt lat="45.83583" lon="-0.90936">
        <ele>12.46</ele>
        <time>2025-05-22T08:28:44Z</time>
      </trkpt>
      <trkpt lat="45.83595" lon="-0.90959">
        <ele>12.46</ele>
        <time>2025-05-22T08:28:28Z</time>
      </trkpt>
      <trkpt lat="45.83609" lon="-0.90979">
        <ele>12.46</ele>
        <time>2025-05-22T08:28:12Z</time>
      </trkpt>
      <trkpt lat="45.83624" lon="-0.90999">
        <ele>13.46</ele>
        <time>2025-05-22T08:27:52Z</time>
      </trkpt>
      <trkpt lat="45.83639" lon="-0.91017">
        <ele>15.46</ele>
        <time>2025-05-22T08:27:36Z</time>
      </trkpt>
      <trkpt lat="45.83653" lon="-0.91036">
        <ele>14.46</ele>
        <time>2025-05-22T08:27:20Z</time>
      </trkpt>
      <trkpt lat="45.83667" lon="-0.91055">
        <ele>13.46</ele>
        <time>2025-05-22T08:27:04Z</time>
      </trkpt>
      <trkpt lat="45.83683" lon="-0.91076">
        <ele>14.46</ele>
        <time>2025-05-22T08:26:44Z</time>
      </trkpt>
      <trkpt lat="45.83698" lon="-0.91095">
        <ele>14.46</ele>
        <time>2025-05-22T08:26:28Z</time>
      </trkpt>
      <trkpt lat="45.83713" lon="-0.91112">
        <ele>15.46</ele>
        <time>2025-05-22T08:26:08Z</time>
      </trkpt>
      <trkpt lat="45.83726" lon="-0.91132">
        <ele>15.46</ele>
        <time>2025-05-22T08:25:52Z</time>
      </trkpt>
      <trkpt lat="45.83741" lon="-0.91151">
        <ele>15.46</ele>
        <time>2025-05-22T08:25:32Z</time>
      </trkpt>
      <trkpt lat="45.83757" lon="-0.91169">
        <ele>16.46</ele>
        <time>2025-05-22T08:25:04Z</time>
      </trkpt>
      <trkpt lat="45.83775" lon="-0.91185">
        <ele>16.46</ele>
        <time>2025-05-22T08:24:44Z</time>
      </trkpt>
      <trkpt lat="45.83789" lon="-0.912">
        <ele>17.46</ele>
        <time>2025-05-22T08:24:28Z</time>
      </trkpt>
      <trkpt lat="45.83801" lon="-0.9122">
        <ele>16.46</ele>
        <time>2025-05-22T08:24:08Z</time>
      </trkpt>
      <trkpt lat="45.83814" lon="-0.91239">
        <ele>18.46</ele>
        <time>2025-05-22T08:23:52Z</time>
      </trkpt>
      <trkpt lat="45.83828" lon="-0.91258">
        <ele>18.46</ele>
        <time>2025-05-22T08:23:36Z</time>
      </trkpt>
      <trkpt lat="45.83843" lon="-0.91278">
        <ele>18.46</ele>
        <time>2025-05-22T08:23:20Z</time>
      </trkpt>
      <trkpt lat="45.83861" lon="-0.9129">
        <ele>19.46</ele>
        <time>2025-05-22T08:23:04Z</time>
      </trkpt>
      <trkpt lat="45.83881" lon="-0.91303">
        <ele>14.46</ele>
        <time>2025-05-22T08:21:24Z</time>
      </trkpt>
      <trkpt lat="45.83894" lon="-0.91321">
        <ele>16.46</ele>
        <time>2025-05-22T08:21:04Z</time>
      </trkpt>
      <trkpt lat="45.83909" lon="-0.9134">
        <ele>15.46</ele>
        <time>2025-05-22T08:20:48Z</time>
      </trkpt>
      <trkpt lat="45.83924" lon="-0.91357">
        <ele>18.46</ele>
        <time>2025-05-22T08:20:32Z</time>
      </trkpt>
      <trkpt lat="45.8394" lon="-0.91375">
        <ele>20.46</ele>
        <time>2025-05-22T08:20:16Z</time>
      </trkpt>
      <trkpt lat="45.83958" lon="-0.91391">
        <ele>21.46</ele>
        <time>2025-05-22T08:20:00Z</time>
      </trkpt>
      <trkpt lat="45.83974" lon="-0.9141">
        <ele>20.46</ele>
        <time>2025-05-22T08:19:44Z</time>
      </trkpt>
      <trkpt lat="45.83991" lon="-0.91433">
        <ele>21.46</ele>
        <time>2025-05-22T08:19:20Z</time>
      </trkpt>
      <trkpt lat="45.84004" lon="-0.91452">
        <ele>21.46</ele>
        <time>2025-05-22T08:19:04Z</time>
      </trkpt>
      <trkpt lat="45.84017" lon="-0.91473">
        <ele>20.46</ele>
        <time>2025-05-22T08:18:44Z</time>
      </trkpt>
      <trkpt lat="45.84029" lon="-0.91498">
        <ele>21.46</ele>
        <time>2025-05-22T08:18:28Z</time>
      </trkpt>
      <trkpt lat="45.84043" lon="-0.9152">
        <ele>22.46</ele>
        <time>2025-05-22T08:18:12Z</time>
      </trkpt>
      <trkpt lat="45.84059" lon="-0.9154">
        <ele>22.46</ele>
        <time>2025-05-22T08:17:56Z</time>
      </trkpt>
      <trkpt lat="45.84074" lon="-0.91563">
        <ele>23.46</ele>
        <time>2025-05-22T08:17:36Z</time>
      </trkpt>
      <trkpt lat="45.84089" lon="-0.91586">
        <ele>22.46</ele>
        <time>2025-05-22T08:17:20Z</time>
      </trkpt>
      <trkpt lat="45.84101" lon="-0.9161">
        <ele>22.46</ele>
        <time>2025-05-22T08:17:04Z</time>
      </trkpt>
      <trkpt lat="45.84109" lon="-0.91637">
        <ele>23.46</ele>
        <time>2025-05-22T08:16:48Z</time>
      </trkpt>
      <trkpt lat="45.84115" lon="-0.91664">
        <ele>24.46</ele>
        <time>2025-05-22T08:16:32Z</time>
      </trkpt>
      <trkpt lat="45.84121" lon="-0.91693">
        <ele>24.46</ele>
        <time>2025-05-22T08:16:12Z</time>
      </trkpt>
      <trkpt lat="45.84126" lon="-0.91723">
        <ele>25.46</ele>
        <time>2025-05-22T08:15:04Z</time>
      </trkpt>
      <trkpt lat="45.84134" lon="-0.9175">
        <ele>26.46</ele>
        <time>2025-05-22T08:14:48Z</time>
      </trkpt>
      <trkpt lat="45.84143" lon="-0.91776">
        <ele>26.46</ele>
        <time>2025-05-22T08:14:32Z</time>
      </trkpt>
      <trkpt lat="45.84152" lon="-0.918">
        <ele>28.46</ele>
        <time>2025-05-22T08:14:16Z</time>
      </trkpt>
      <trkpt lat="45.84161" lon="-0.91825">
        <ele>30.46</ele>
        <time>2025-05-22T08:14:00Z</time>
      </trkpt>
      <trkpt lat="45.84167" lon="-0.9185">
        <ele>29.46</ele>
        <time>2025-05-22T08:13:44Z</time>
      </trkpt>
      <trkpt lat="45.84172" lon="-0.91875">
        <ele>28.46</ele>
        <time>2025-05-22T08:13:28Z</time>
      </trkpt>
      <trkpt lat="45.84182" lon="-0.91898">
        <ele>26.46</ele>
        <time>2025-05-22T08:13:12Z</time>
      </trkpt>
      <trkpt lat="45.84195" lon="-0.91918">
        <ele>26.46</ele>
        <time>2025-05-22T08:12:56Z</time>
      </trkpt>
      <trkpt lat="45.8421" lon="-0.91938">
        <ele>25.46</ele>
        <time>2025-05-22T08:12:40Z</time>
      </trkpt>
      <trkpt lat="45.84228" lon="-0.91951">
        <ele>23.46</ele>
        <time>2025-05-22T08:12:24Z</time>
      </trkpt>
      <trkpt lat="45.84245" lon="-0.91967">
        <ele>22.46</ele>
        <time>2025-05-22T08:12:08Z</time>
      </trkpt>
      <trkpt lat="45.84263" lon="-0.91978">
        <ele>22.46</ele>
        <time>2025-05-22T08:11:52Z</time>
      </trkpt>
      <trkpt lat="45.84282" lon="-0.91988">
        <ele>22.46</ele>
        <time>2025-05-22T08:11:36Z</time>
      </trkpt>
      <trkpt lat="45.843" lon="-0.91997">
        <ele>22.46</ele>
        <time>2025-05-22T08:11:20Z</time>
      </trkpt>
      <trkpt lat="45.84319" lon="-0.92005">
        <ele>22.46</ele>
        <time>2025-05-22T08:11:04Z</time>
      </trkpt>
      <trkpt lat="45.84338" lon="-0.92011">
        <ele>21.46</ele>
        <time>2025-05-22T08:10:48Z</time>
      </trkpt>
      <trkpt lat="45.84356" lon="-0.9202">
        <ele>23.46</ele>
        <time>2025-05-22T08:10:32Z</time>
      </trkpt>
      <trkpt lat="45.84374" lon="-0.92031">
        <ele>23.46</ele>
        <time>2025-05-22T08:10:16Z</time>
      </trkpt>
      <trkpt lat="45.84394" lon="-0.92044">
        <ele>22.46</ele>
        <time>2025-05-22T08:09:56Z</time>
      </trkpt>
      <trkpt lat="45.84411" lon="-0.92053">
        <ele>22.46</ele>
        <time>2025-05-22T08:09:40Z</time>
      </trkpt>
      <trkpt lat="45.84427" lon="-0.92069">
        <ele>22.46</ele>
        <time>2025-05-22T08:09:24Z</time>
      </trkpt>
      <trkpt lat="45.84443" lon="-0.92085">
        <ele>22.46</ele>
        <time>2025-05-22T08:09:08Z</time>
      </trkpt>
      <trkpt lat="45.84457" lon="-0.92105">
        <ele>22.46</ele>
        <time>2025-05-22T08:08:52Z</time>
      </trkpt>
      <trkpt lat="45.84471" lon="-0.92125">
        <ele>22.46</ele>
        <time>2025-05-22T08:08:36Z</time>
      </trkpt>
      <trkpt lat="45.84483" lon="-0.9215">
        <ele>23.46</ele>
        <time>2025-05-22T08:08:20Z</time>
      </trkpt>
      <trkpt lat="45.84492" lon="-0.92174">
        <ele>23.46</ele>
        <time>2025-05-22T08:08:04Z</time>
      </trkpt>
      <trkpt lat="45.84501" lon="-0.92199">
        <ele>22.46</ele>
        <time>2025-05-22T08:07:48Z</time>
      </trkpt>
      <trkpt lat="45.8451" lon="-0.92223">
        <ele>23.46</ele>
        <time>2025-05-22T08:07:32Z</time>
      </trkpt>
      <trkpt lat="45.8452" lon="-0.92249">
        <ele>24.46</ele>
        <time>2025-05-22T08:07:16Z</time>
      </trkpt>
      <trkpt lat="45.8453" lon="-0.92274">
        <ele>24.46</ele>
        <time>2025-05-22T08:07:00Z</time>
      </trkpt>
      <trkpt lat="45.84539" lon="-0.92299">
        <ele>23.46</ele>
        <time>2025-05-22T08:06:44Z</time>
      </trkpt>
      <trkpt lat="45.84547" lon="-0.92323">
        <ele>23.46</ele>
        <time>2025-05-22T08:06:28Z</time>
      </trkpt>
      <trkpt lat="45.84559" lon="-0.92352">
        <ele>24.46</ele>
        <time>2025-05-22T08:06:08Z</time>
      </trkpt>
      <trkpt lat="45.84567" lon="-0.92376">
        <ele>24.46</ele>
        <time>2025-05-22T08:05:52Z</time>
      </trkpt>
      <trkpt lat="45.84574" lon="-0.924">
        <ele>22.46</ele>
        <time>2025-05-22T08:05:36Z</time>
      </trkpt>
      <trkpt lat="45.84583" lon="-0.92426">
        <ele>21.46</ele>
        <time>2025-05-22T08:05:20Z</time>
      </trkpt>
      <trkpt lat="45.84592" lon="-0.92454">
        <ele>21.46</ele>
        <time>2025-05-22T08:05:04Z</time>
      </trkpt>
      <trkpt lat="45.84597" lon="-0.92479">
        <ele>20.46</ele>
        <time>2025-05-22T08:04:48Z</time>
      </trkpt>
      <trkpt lat="45.84604" lon="-0.92504">
        <ele>19.46</ele>
        <time>2025-05-22T08:04:32Z</time>
      </trkpt>
      <trkpt lat="45.84608" lon="-0.92531">
        <ele>21.46</ele>
        <time>2025-05-22T08:04:16Z</time>
      </trkpt>
      <trkpt lat="45.84615" lon="-0.92557">
        <ele>21.46</ele>
        <time>2025-05-22T08:03:59Z</time>
      </trkpt>
      <trkpt lat="45.84623" lon="-0.92583">
        <ele>21.46</ele>
        <time>2025-05-22T08:03:42Z</time>
      </trkpt>
      <trkpt lat="45.84632" lon="-0.92608">
        <ele>21.46</ele>
        <time>2025-05-22T08:03:26Z</time>
      </trkpt>
      <trkpt lat="45.84644" lon="-0.92638">
        <ele>20.46</ele>
        <time>2025-05-22T08:03:08Z</time>
      </trkpt>
      <trkpt lat="45.84656" lon="-0.92663">
        <ele>19.46</ele>
        <time>2025-05-22T08:02:51Z</time>
      </trkpt>
      <trkpt lat="45.84667" lon="-0.92685">
        <ele>19.46</ele>
        <time>2025-05-22T08:02:35Z</time>
      </trkpt>
      <trkpt lat="45.84679" lon="-0.92707">
        <ele>20.46</ele>
        <time>2025-05-22T08:02:19Z</time>
      </trkpt>
      <trkpt lat="45.84689" lon="-0.9273">
        <ele>18.46</ele>
        <time>2025-05-22T08:02:03Z</time>
      </trkpt>
      <trkpt lat="45.847" lon="-0.92754">
        <ele>18.46</ele>
        <time>2025-05-22T08:01:47Z</time>
      </trkpt>
      <trkpt lat="45.84709" lon="-0.92781">
        <ele>18.46</ele>
        <time>2025-05-22T08:01:31Z</time>
      </trkpt>
      <trkpt lat="45.84718" lon="-0.92808">
        <ele>18.46</ele>
        <time>2025-05-22T08:01:15Z</time>
      </trkpt>
      <trkpt lat="45.84719" lon="-0.92835">
        <ele>21.46</ele>
        <time>2025-05-22T08:00:59Z</time>
      </trkpt>
      <trkpt lat="45.84723" lon="-0.92861">
        <ele>19.46</ele>
        <time>2025-05-22T08:00:43Z</time>
      </trkpt>
      <trkpt lat="45.8473" lon="-0.92885">
        <ele>17.46</ele>
        <time>2025-05-22T08:00:27Z</time>
      </trkpt>
      <trkpt lat="45.84737" lon="-0.92912">
        <ele>18.46</ele>
        <time>2025-05-22T08:00:11Z</time>
      </trkpt>
      <trkpt lat="45.84743" lon="-0.92938">
        <ele>18.46</ele>
        <time>2025-05-22T07:59:55Z</time>
      </trkpt>
      <trkpt lat="45.84752" lon="-0.92969">
        <ele>16.46</ele>
        <time>2025-05-22T07:59:35Z</time>
      </trkpt>
      <trkpt lat="45.84763" lon="-0.92994">
        <ele>15.46</ele>
        <time>2025-05-22T07:59:15Z</time>
      </trkpt>
      <trkpt lat="45.84774" lon="-0.93016">
        <ele>14.46</ele>
        <time>2025-05-22T07:58:59Z</time>
      </trkpt>
      <trkpt lat="45.84788" lon="-0.9304">
        <ele>12.46</ele>
        <time>2025-05-22T07:58:39Z</time>
      </trkpt>
      <trkpt lat="45.84791" lon="-0.9307">
        <ele>12.46</ele>
        <time>2025-05-22T07:58:19Z</time>
      </trkpt>
      <trkpt lat="45.84771" lon="-0.93068">
        <ele>14.46</ele>
        <time>2025-05-22T07:57:59Z</time>
      </trkpt>
      <trkpt lat="45.84751" lon="-0.9308">
        <ele>14.46</ele>
        <time>2025-05-22T07:57:39Z</time>
      </trkpt>
      <trkpt lat="45.84755" lon="-0.93106">
        <ele>13.46</ele>
        <time>2025-05-22T07:57:19Z</time>
      </trkpt>
      <trkpt lat="45.8477" lon="-0.93123">
        <ele>13.46</ele>
        <time>2025-05-22T07:57:03Z</time>
      </trkpt>
      <trkpt lat="45.84785" lon="-0.9314">
        <ele>16.46</ele>
        <time>2025-05-22T07:56:47Z</time>
      </trkpt>
      <trkpt lat="45.848" lon="-0.93158">
        <ele>16.46</ele>
        <time>2025-05-22T07:56:31Z</time>
      </trkpt>
      <trkpt lat="45.84817" lon="-0.93175">
        <ele>15.46</ele>
        <time>2025-05-22T07:55:39Z</time>
      </trkpt>
      <trkpt lat="45.8481" lon="-0.93203">
        <ele>13.46</ele>
        <time>2025-05-22T07:55:19Z</time>
      </trkpt>
      <trkpt lat="45.84808" lon="-0.93235">
        <ele>15.46</ele>
        <time>2025-05-22T07:55:03Z</time>
      </trkpt>
      <trkpt lat="45.8481" lon="-0.93262">
        <ele>15.46</ele>
        <time>2025-05-22T07:54:47Z</time>
      </trkpt>
      <trkpt lat="45.84814" lon="-0.9329">
        <ele>15.46</ele>
        <time>2025-05-22T07:54:31Z</time>
      </trkpt>
      <trkpt lat="45.84819" lon="-0.93319">
        <ele>13.46</ele>
        <time>2025-05-22T07:54:15Z</time>
      </trkpt>
      <trkpt lat="45.84817" lon="-0.93346">
        <ele>12.46</ele>
        <time>2025-05-22T07:53:59Z</time>
      </trkpt>
      <trkpt lat="45.84812" lon="-0.93374">
        <ele>12.46</ele>
        <time>2025-05-22T07:53:43Z</time>
      </trkpt>
      <trkpt lat="45.8481" lon="-0.93404">
        <ele>13.46</ele>
        <time>2025-05-22T07:53:27Z</time>
      </trkpt>
      <trkpt lat="45.84811" lon="-0.93433">
        <ele>15.46</ele>
        <time>2025-05-22T07:53:11Z</time>
      </trkpt>
      <trkpt lat="45.84811" lon="-0.93463">
        <ele>16.46</ele>
        <time>2025-05-22T07:52:55Z</time>
      </trkpt>
      <trkpt lat="45.84805" lon="-0.93494">
        <ele>15.46</ele>
        <time>2025-05-22T07:52:35Z</time>
      </trkpt>
      <trkpt lat="45.84812" lon="-0.93522">
        <ele>18.46</ele>
        <time>2025-05-22T07:52:11Z</time>
      </trkpt>
      <trkpt lat="45.84831" lon="-0.93531">
        <ele>15.46</ele>
        <time>2025-05-22T07:51:55Z</time>
      </trkpt>
      <trkpt lat="45.84851" lon="-0.93537">
        <ele>15.46</ele>
        <time>2025-05-22T07:51:39Z</time>
      </trkpt>
      <trkpt lat="45.84873" lon="-0.9354">
        <ele>16.46</ele>
        <time>2025-05-22T07:51:23Z</time>
      </trkpt>
      <trkpt lat="45.84893" lon="-0.9354">
        <ele>16.46</ele>
        <time>2025-05-22T07:51:07Z</time>
      </trkpt>
      <trkpt lat="45.84915" lon="-0.93541">
        <ele>17.46</ele>
        <time>2025-05-22T07:50:51Z</time>
      </trkpt>
      <trkpt lat="45.84935" lon="-0.9354">
        <ele>16.46</ele>
        <time>2025-05-22T07:50:35Z</time>
      </trkpt>
      <trkpt lat="45.84955" lon="-0.93539">
        <ele>16.46</ele>
        <time>2025-05-22T07:50:19Z</time>
      </trkpt>
      <trkpt lat="45.84976" lon="-0.93542">
        <ele>17.46</ele>
        <time>2025-05-22T07:50:03Z</time>
      </trkpt>
      <trkpt lat="45.84997" lon="-0.93544">
        <ele>19.46</ele>
        <time>2025-05-22T07:49:47Z</time>
      </trkpt>
      <trkpt lat="45.85018" lon="-0.93542">
        <ele>21.46</ele>
        <time>2025-05-22T07:49:31Z</time>
      </trkpt>
      <trkpt lat="45.85038" lon="-0.93541">
        <ele>21.46</ele>
        <time>2025-05-22T07:49:15Z</time>
      </trkpt>
      <trkpt lat="45.85058" lon="-0.93537">
        <ele>21.46</ele>
        <time>2025-05-22T07:48:59Z</time>
      </trkpt>
      <trkpt lat="45.85077" lon="-0.93532">
        <ele>21.46</ele>
        <time>2025-05-22T07:48:43Z</time>
      </trkpt>
      <trkpt lat="45.851" lon="-0.93529">
        <ele>20.46</ele>
        <time>2025-05-22T07:46:55Z</time>
      </trkpt>
      <trkpt lat="45.85119" lon="-0.93526">
        <ele>19.46</ele>
        <time>2025-05-22T07:46:35Z</time>
      </trkpt>
      <trkpt lat="45.85135" lon="-0.93543">
        <ele>21.46</ele>
        <time>2025-05-22T07:46:19Z</time>
      </trkpt>
      <trkpt lat="45.85154" lon="-0.93549">
        <ele>20.46</ele>
        <time>2025-05-22T07:46:03Z</time>
      </trkpt>
      <trkpt lat="45.85173" lon="-0.93549">
        <ele>22.46</ele>
        <time>2025-05-22T07:45:47Z</time>
      </trkpt>
      <trkpt lat="45.85194" lon="-0.93551">
        <ele>20.46</ele>
        <time>2025-05-22T07:45:31Z</time>
      </trkpt>
      <trkpt lat="45.85214" lon="-0.93551">
        <ele>20.46</ele>
        <time>2025-05-22T07:45:15Z</time>
      </trkpt>
      <trkpt lat="45.85233" lon="-0.93551">
        <ele>21.46</ele>
        <time>2025-05-22T07:44:59Z</time>
      </trkpt>
      <trkpt lat="45.85253" lon="-0.93552">
        <ele>21.46</ele>
        <time>2025-05-22T07:44:43Z</time>
      </trkpt>
      <trkpt lat="45.85273" lon="-0.93555">
        <ele>20.46</ele>
        <time>2025-05-22T07:44:27Z</time>
      </trkpt>
      <trkpt lat="45.85293" lon="-0.93559">
        <ele>21.46</ele>
        <time>2025-05-22T07:44:11Z</time>
      </trkpt>
      <trkpt lat="45.85312" lon="-0.93562">
        <ele>19.46</ele>
        <time>2025-05-22T07:43:55Z</time>
      </trkpt>
      <trkpt lat="45.85332" lon="-0.93559">
        <ele>19.46</ele>
        <time>2025-05-22T07:43:39Z</time>
      </trkpt>
      <trkpt lat="45.85352" lon="-0.93559">
        <ele>20.46</ele>
        <time>2025-05-22T07:43:23Z</time>
      </trkpt>
      <trkpt lat="45.85371" lon="-0.93558">
        <ele>21.46</ele>
        <time>2025-05-22T07:43:07Z</time>
      </trkpt>
      <trkpt lat="45.85391" lon="-0.93551">
        <ele>23.46</ele>
        <time>2025-05-22T07:42:51Z</time>
      </trkpt>
      <trkpt lat="45.8541" lon="-0.93544">
        <ele>21.46</ele>
        <time>2025-05-22T07:42:35Z</time>
      </trkpt>
      <trkpt lat="45.8543" lon="-0.93535">
        <ele>19.46</ele>
        <time>2025-05-22T07:42:19Z</time>
      </trkpt>
      <trkpt lat="45.8545" lon="-0.93525">
        <ele>20.46</ele>
        <time>2025-05-22T07:42:03Z</time>
      </trkpt>
      <trkpt lat="45.85471" lon="-0.93514">
        <ele>22.46</ele>
        <time>2025-05-22T07:41:43Z</time>
      </trkpt>
      <trkpt lat="45.85489" lon="-0.93501">
        <ele>21.46</ele>
        <time>2025-05-22T07:41:27Z</time>
      </trkpt>
      <trkpt lat="45.85509" lon="-0.93485">
        <ele>20.46</ele>
        <time>2025-05-22T07:41:11Z</time>
      </trkpt>
      <trkpt lat="45.85525" lon="-0.93472">
        <ele>20.46</ele>
        <time>2025-05-22T07:40:55Z</time>
      </trkpt>
      <trkpt lat="45.85545" lon="-0.93458">
        <ele>22.46</ele>
        <time>2025-05-22T07:40:35Z</time>
      </trkpt>
      <trkpt lat="45.85563" lon="-0.93447">
        <ele>22.46</ele>
        <time>2025-05-22T07:40:19Z</time>
      </trkpt>
      <trkpt lat="45.85584" lon="-0.93436">
        <ele>22.46</ele>
        <time>2025-05-22T07:39:59Z</time>
      </trkpt>
      <trkpt lat="45.85603" lon="-0.93427">
        <ele>22.46</ele>
        <time>2025-05-22T07:39:43Z</time>
      </trkpt>
      <trkpt lat="45.85623" lon="-0.93419">
        <ele>20.46</ele>
        <time>2025-05-22T07:39:27Z</time>
      </trkpt>
      <trkpt lat="45.8564" lon="-0.9341">
        <ele>21.46</ele>
        <time>2025-05-22T07:39:11Z</time>
      </trkpt>
      <trkpt lat="45.85658" lon="-0.93402">
        <ele>21.46</ele>
        <time>2025-05-22T07:38:55Z</time>
      </trkpt>
      <trkpt lat="45.85677" lon="-0.93395">
        <ele>23.46</ele>
        <time>2025-05-22T07:38:39Z</time>
      </trkpt>
      <trkpt lat="45.85696" lon="-0.93386">
        <ele>23.46</ele>
        <time>2025-05-22T07:38:23Z</time>
      </trkpt>
      <trkpt lat="45.85715" lon="-0.93384">
        <ele>25.46</ele>
        <time>2025-05-22T07:38:07Z</time>
      </trkpt>
      <trkpt lat="45.85736" lon="-0.93381">
        <ele>23.46</ele>
        <time>2025-05-22T07:37:51Z</time>
      </trkpt>
      <trkpt lat="45.85755" lon="-0.93378">
        <ele>25.46</ele>
        <time>2025-05-22T07:37:35Z</time>
      </trkpt>
      <trkpt lat="45.85775" lon="-0.93368">
        <ele>23.46</ele>
        <time>2025-05-22T07:37:15Z</time>
      </trkpt>
      <trkpt lat="45.85793" lon="-0.9336">
        <ele>23.46</ele>
        <time>2025-05-22T07:36:59Z</time>
      </trkpt>
      <trkpt lat="45.85814" lon="-0.93346">
        <ele>24.46</ele>
        <time>2025-05-22T07:36:43Z</time>
      </trkpt>
      <trkpt lat="45.85835" lon="-0.93331">
        <ele>25.46</ele>
        <time>2025-05-22T07:36:27Z</time>
      </trkpt>
      <trkpt lat="45.85855" lon="-0.93319">
        <ele>25.46</ele>
        <time>2025-05-22T07:36:11Z</time>
      </trkpt>
      <trkpt lat="45.85875" lon="-0.93312">
        <ele>25.46</ele>
        <time>2025-05-22T07:35:51Z</time>
      </trkpt>
      <trkpt lat="45.85894" lon="-0.93308">
        <ele>24.46</ele>
        <time>2025-05-22T07:35:35Z</time>
      </trkpt>
      <trkpt lat="45.8591" lon="-0.93325">
        <ele>24.46</ele>
        <time>2025-05-22T07:35:19Z</time>
      </trkpt>
      <trkpt lat="45.85928" lon="-0.93334">
        <ele>24.46</ele>
        <time>2025-05-22T07:35:03Z</time>
      </trkpt>
      <trkpt lat="45.85948" lon="-0.93334">
        <ele>23.46</ele>
        <time>2025-05-22T07:34:47Z</time>
      </trkpt>
      <trkpt lat="45.85969" lon="-0.93333">
        <ele>24.46</ele>
        <time>2025-05-22T07:34:31Z</time>
      </trkpt>
      <trkpt lat="45.85988" lon="-0.93334">
        <ele>23.46</ele>
        <time>2025-05-22T07:34:15Z</time>
      </trkpt>
      <trkpt lat="45.86009" lon="-0.93335">
        <ele>21.46</ele>
        <time>2025-05-22T07:33:59Z</time>
      </trkpt>
      <trkpt lat="45.86028" lon="-0.93334">
        <ele>22.46</ele>
        <time>2025-05-22T07:33:43Z</time>
      </trkpt>
      <trkpt lat="45.86048" lon="-0.93332">
        <ele>23.46</ele>
        <time>2025-05-22T07:33:27Z</time>
      </trkpt>
      <trkpt lat="45.86068" lon="-0.9333">
        <ele>22.46</ele>
        <time>2025-05-22T07:33:11Z</time>
      </trkpt>
      <trkpt lat="45.86089" lon="-0.93326">
        <ele>20.46</ele>
        <time>2025-05-22T07:32:55Z</time>
      </trkpt>
      <trkpt lat="45.86108" lon="-0.93321">
        <ele>19.46</ele>
        <time>2025-05-22T07:32:39Z</time>
      </trkpt>
      <trkpt lat="45.86128" lon="-0.93315">
        <ele>20.46</ele>
        <time>2025-05-22T07:32:23Z</time>
      </trkpt>
      <trkpt lat="45.86146" lon="-0.9331">
        <ele>22.46</ele>
        <time>2025-05-22T07:32:07Z</time>
      </trkpt>
      <trkpt lat="45.86164" lon="-0.93309">
        <ele>23.46</ele>
        <time>2025-05-22T07:31:51Z</time>
      </trkpt>
      <trkpt lat="45.86185" lon="-0.93309">
        <ele>22.46</ele>
        <time>2025-05-22T07:31:35Z</time>
      </trkpt>
      <trkpt lat="45.86205" lon="-0.93308">
        <ele>22.46</ele>
        <time>2025-05-22T07:31:19Z</time>
      </trkpt>
      <trkpt lat="45.86224" lon="-0.93312">
        <ele>22.46</ele>
        <time>2025-05-22T07:31:03Z</time>
      </trkpt>
      <trkpt lat="45.86243" lon="-0.93313">
        <ele>23.46</ele>
        <time>2025-05-22T07:30:47Z</time>
      </trkpt>
      <trkpt lat="45.86263" lon="-0.93315">
        <ele>21.46</ele>
        <time>2025-05-22T07:30:31Z</time>
      </trkpt>
      <trkpt lat="45.86285" lon="-0.93316">
        <ele>21.46</ele>
        <time>2025-05-22T07:30:15Z</time>
      </trkpt>
      <trkpt lat="45.86303" lon="-0.93321">
        <ele>22.46</ele>
        <time>2025-05-22T07:29:59Z</time>
      </trkpt>
      <trkpt lat="45.86325" lon="-0.93322">
        <ele>21.46</ele>
        <time>2025-05-22T07:29:43Z</time>
      </trkpt>
      <trkpt lat="45.86344" lon="-0.93326">
        <ele>21.46</ele>
        <time>2025-05-22T07:29:27Z</time>
      </trkpt>
      <trkpt lat="45.86363" lon="-0.93333">
        <ele>21.46</ele>
        <time>2025-05-22T07:29:11Z</time>
      </trkpt>
      <trkpt lat="45.86378" lon="-0.9335">
        <ele>22.46</ele>
        <time>2025-05-22T07:28:55Z</time>
      </trkpt>
      <trkpt lat="45.86389" lon="-0.93372">
        <ele>22.46</ele>
        <time>2025-05-22T07:28:39Z</time>
      </trkpt>
      <trkpt lat="45.86399" lon="-0.93397">
        <ele>23.46</ele>
        <time>2025-05-22T07:28:23Z</time>
      </trkpt>
      <trkpt lat="45.8641" lon="-0.93422">
        <ele>22.46</ele>
        <time>2025-05-22T07:28:07Z</time>
      </trkpt>
      <trkpt lat="45.86421" lon="-0.93446">
        <ele>23.46</ele>
        <time>2025-05-22T07:27:51Z</time>
      </trkpt>
      <trkpt lat="45.86433" lon="-0.93468">
        <ele>22.46</ele>
        <time>2025-05-22T07:27:35Z</time>
      </trkpt>
      <trkpt lat="45.86446" lon="-0.93488">
        <ele>22.46</ele>
        <time>2025-05-22T07:27:19Z</time>
      </trkpt>
      <trkpt lat="45.86459" lon="-0.93508">
        <ele>22.46</ele>
        <time>2025-05-22T07:27:03Z</time>
      </trkpt>
      <trkpt lat="45.86475" lon="-0.93528">
        <ele>19.46</ele>
        <time>2025-05-22T07:26:47Z</time>
      </trkpt>
      <trkpt lat="45.8649" lon="-0.93546">
        <ele>18.46</ele>
        <time>2025-05-22T07:26:31Z</time>
      </trkpt>
      <trkpt lat="45.86503" lon="-0.93566">
        <ele>20.46</ele>
        <time>2025-05-22T07:26:15Z</time>
      </trkpt>
      <trkpt lat="45.8652" lon="-0.93586">
        <ele>20.46</ele>
        <time>2025-05-22T07:25:59Z</time>
      </trkpt>
      <trkpt lat="45.86533" lon="-0.93605">
        <ele>20.46</ele>
        <time>2025-05-22T07:25:43Z</time>
      </trkpt>
      <trkpt lat="45.86548" lon="-0.93624">
        <ele>20.46</ele>
        <time>2025-05-22T07:25:27Z</time>
      </trkpt>
      <trkpt lat="45.86562" lon="-0.93645">
        <ele>20.46</ele>
        <time>2025-05-22T07:25:11Z</time>
      </trkpt>
      <trkpt lat="45.86573" lon="-0.93669">
        <ele>19.46</ele>
        <time>2025-05-22T07:24:55Z</time>
      </trkpt>
      <trkpt lat="45.86584" lon="-0.93691">
        <ele>19.46</ele>
        <time>2025-05-22T07:24:39Z</time>
      </trkpt>
      <trkpt lat="45.86594" lon="-0.93715">
        <ele>18.46</ele>
        <time>2025-05-22T07:24:23Z</time>
      </trkpt>
      <trkpt lat="45.86606" lon="-0.93736">
        <ele>17.46</ele>
        <time>2025-05-22T07:24:07Z</time>
      </trkpt>
      <trkpt lat="45.86622" lon="-0.93753">
        <ele>17.46</ele>
        <time>2025-05-22T07:23:51Z</time>
      </trkpt>
      <trkpt lat="45.86639" lon="-0.93771">
        <ele>16.46</ele>
        <time>2025-05-22T07:23:35Z</time>
      </trkpt>
      <trkpt lat="45.86656" lon="-0.93786">
        <ele>16.46</ele>
        <time>2025-05-22T07:23:19Z</time>
      </trkpt>
      <trkpt lat="45.86673" lon="-0.93803">
        <ele>17.46</ele>
        <time>2025-05-22T07:23:03Z</time>
      </trkpt>
      <trkpt lat="45.8669" lon="-0.93816">
        <ele>16.46</ele>
        <time>2025-05-22T07:22:47Z</time>
      </trkpt>
      <trkpt lat="45.86706" lon="-0.9383">
        <ele>16.46</ele>
        <time>2025-05-22T07:22:31Z</time>
      </trkpt>
      <trkpt lat="45.86724" lon="-0.93844">
        <ele>15.46</ele>
        <time>2025-05-22T07:22:15Z</time>
      </trkpt>
      <trkpt lat="45.86742" lon="-0.93856">
        <ele>15.46</ele>
        <time>2025-05-22T07:21:59Z</time>
      </trkpt>
      <trkpt lat="45.86761" lon="-0.9387">
        <ele>17.46</ele>
        <time>2025-05-22T07:21:43Z</time>
      </trkpt>
      <trkpt lat="45.86777" lon="-0.93886">
        <ele>17.46</ele>
        <time>2025-05-22T07:21:27Z</time>
      </trkpt>
      <trkpt lat="45.86793" lon="-0.93902">
        <ele>17.46</ele>
        <time>2025-05-22T07:21:11Z</time>
      </trkpt>
      <trkpt lat="45.8681" lon="-0.93916">
        <ele>16.46</ele>
        <time>2025-05-22T07:20:55Z</time>
      </trkpt>
      <trkpt lat="45.86826" lon="-0.93933">
        <ele>17.46</ele>
        <time>2025-05-22T07:20:39Z</time>
      </trkpt>
      <trkpt lat="45.86844" lon="-0.9395">
        <ele>16.46</ele>
        <time>2025-05-22T07:20:23Z</time>
      </trkpt>
      <trkpt lat="45.8686" lon="-0.93966">
        <ele>15.46</ele>
        <time>2025-05-22T07:20:07Z</time>
      </trkpt>
      <trkpt lat="45.86878" lon="-0.93982">
        <ele>16.46</ele>
        <time>2025-05-22T07:19:51Z</time>
      </trkpt>
      <trkpt lat="45.86894" lon="-0.93998">
        <ele>17.46</ele>
        <time>2025-05-22T07:19:35Z</time>
      </trkpt>
      <trkpt lat="45.8691" lon="-0.94016">
        <ele>18.46</ele>
        <time>2025-05-22T07:19:19Z</time>
      </trkpt>
      <trkpt lat="45.86925" lon="-0.94035">
        <ele>18.46</ele>
        <time>2025-05-22T07:19:03Z</time>
      </trkpt>
      <trkpt lat="45.8694" lon="-0.94055">
        <ele>17.46</ele>
        <time>2025-05-22T07:18:47Z</time>
      </trkpt>
      <trkpt lat="45.86954" lon="-0.94076">
        <ele>19.46</ele>
        <time>2025-05-22T07:18:31Z</time>
      </trkpt>
      <trkpt lat="45.86969" lon="-0.94097">
        <ele>16.46</ele>
        <time>2025-05-22T07:18:15Z</time>
      </trkpt>
      <trkpt lat="45.86981" lon="-0.94118">
        <ele>15.46</ele>
        <time>2025-05-22T07:17:59Z</time>
      </trkpt>
      <trkpt lat="45.86994" lon="-0.94135">
        <ele>14.46</ele>
        <time>2025-05-22T07:17:43Z</time>
      </trkpt>
      <trkpt lat="45.87006" lon="-0.94158">
        <ele>16.46</ele>
        <time>2025-05-22T07:17:27Z</time>
      </trkpt>
      <trkpt lat="45.87019" lon="-0.94178">
        <ele>17.46</ele>
        <time>2025-05-22T07:17:11Z</time>
      </trkpt>
      <trkpt lat="45.87031" lon="-0.94198">
        <ele>16.46</ele>
        <time>2025-05-22T07:16:55Z</time>
      </trkpt>
      <trkpt lat="45.87046" lon="-0.94223">
        <ele>14.46</ele>
        <time>2025-05-22T07:16:35Z</time>
      </trkpt>
      <trkpt lat="45.87057" lon="-0.94248">
        <ele>15.46</ele>
        <time>2025-05-22T07:16:19Z</time>
      </trkpt>
      <trkpt lat="45.87067" lon="-0.9427">
        <ele>14.46</ele>
        <time>2025-05-22T07:16:03Z</time>
      </trkpt>
      <trkpt lat="45.87075" lon="-0.94293">
        <ele>12.46</ele>
        <time>2025-05-22T07:15:47Z</time>
      </trkpt>
      <trkpt lat="45.87084" lon="-0.94317">
        <ele>12.46</ele>
        <time>2025-05-22T07:15:31Z</time>
      </trkpt>
      <trkpt lat="45.87095" lon="-0.9434">
        <ele>11.46</ele>
        <time>2025-05-22T07:15:15Z</time>
      </trkpt>
      <trkpt lat="45.87108" lon="-0.9436">
        <ele>10.46</ele>
        <time>2025-05-22T07:14:59Z</time>
      </trkpt>
      <trkpt lat="45.8712" lon="-0.94381">
        <ele>9.46</ele>
        <time>2025-05-22T07:14:43Z</time>
      </trkpt>
      <trkpt lat="45.87134" lon="-0.944">
        <ele>8.46</ele>
        <time>2025-05-22T07:14:27Z</time>
      </trkpt>
      <trkpt lat="45.87141" lon="-0.94426">
        <ele>6.46</ele>
        <time>2025-05-22T07:14:11Z</time>
        <extensions>
          <visugpx:TrkExtension xmlns:visugpx="https://www.visugpx.com/editgpx/">
            <visugpx:node>1</visugpx:node>
            </visugpx:TrkExtension>
        </extensions>
      </trkpt>
      <trkpt lat="45.87146" lon="-0.94454">
        <ele>6.9</ele>
      </trkpt>
      <trkpt lat="45.87154" lon="-0.94516">
        <ele>8.6</ele>
      </trkpt>
      <trkpt lat="45.87176" lon="-0.94614">
        <ele>10.7</ele>
      </trkpt>
      <trkpt lat="45.87178" lon="-0.94637">
        <ele>10.6</ele>
      </trkpt>
      <trkpt lat="45.87174" lon="-0.94694">
        <ele>10.7</ele>
      </trkpt>
      <trkpt lat="45.87175" lon="-0.94722">
        <ele>10.7</ele>
      </trkpt>
      <trkpt lat="45.87181" lon="-0.9475">
        <ele>11</ele>
      </trkpt>
      <trkpt lat="45.8719" lon="-0.94784">
        <ele>11</ele>
      </trkpt>
      <trkpt lat="45.87203" lon="-0.94819">
        <ele>10.7</ele>
      </trkpt>
      <trkpt lat="45.87215" lon="-0.94841">
        <ele>10.5</ele>
      </trkpt>
      <trkpt lat="45.8722" lon="-0.94844">
        <ele>10.4</ele>
      </trkpt>
      <trkpt lat="45.87221" lon="-0.94844">
        <ele>10.4</ele>
        <extensions>
          <visugpx:TrkExtension xmlns:visugpx="https://www.visugpx.com/editgpx/">
            <visugpx:node>2</visugpx:node>
            </visugpx:TrkExtension>
        </extensions>
      </trkpt>
      <trkpt lat="45.87249" lon="-0.94846">
        <ele>10</ele>
      </trkpt>
      <trkpt lat="45.8728" lon="-0.94845">
        <ele>9.9</ele>
      </trkpt>
      <trkpt lat="45.87307" lon="-0.94917">
        <ele>8.9</ele>
      </trkpt>
      <trkpt lat="45.87313" lon="-0.94921">
        <ele>8.6</ele>
      </trkpt>
      <trkpt lat="45.87342" lon="-0.94886">
        <ele>8.3</ele>
      </trkpt>
      <trkpt lat="45.87358" lon="-0.9488">
        <ele>7.5</ele>
      </trkpt>
      <trkpt lat="45.87363" lon="-0.94887">
        <ele>7</ele>
        <extensions>
          <visugpx:TrkExtension xmlns:visugpx="https://www.visugpx.com/editgpx/">
            <visugpx:node>3</visugpx:node>
            </visugpx:TrkExtension>
        </extensions>
      </trkpt>
      <trkpt lat="45.87384" lon="-0.94917">
        <ele>6.2</ele>
      </trkpt>
      <trkpt lat="45.87437" lon="-0.95031">
        <ele>9.8</ele>
      </trkpt>
      <trkpt lat="45.8745" lon="-0.95049">
        <ele>10.2</ele>
      </trkpt>
      <trkpt lat="45.87457" lon="-0.95054">
        <ele>10.4</ele>
        <extensions>
          <visugpx:TrkExtension xmlns:visugpx="https://www.visugpx.com/editgpx/">
            <visugpx:node>4</visugpx:node>
            </visugpx:TrkExtension>
        </extensions>
      </trkpt>
      <trkpt lat="45.8746" lon="-0.95056">
        <ele>10.6</ele>
      </trkpt>
      <trkpt lat="45.87473" lon="-0.95059">
        <ele>11</ele>
      </trkpt>
      <trkpt lat="45.875" lon="-0.95067">
        <ele>10.4</ele>
      </trkpt>
      <trkpt lat="45.87503" lon="-0.95062">
        <ele>10.3</ele>
      </trkpt>
      <trkpt lat="45.8751" lon="-0.95061">
        <ele>10.5</ele>
      </trkpt>
      <trkpt lat="45.87514" lon="-0.95067">
        <ele>10.7</ele>
      </trkpt>
      <trkpt lat="45.87514" lon="-0.95073">
        <ele>10.8</ele>
      </trkpt>
      <trkpt lat="45.87524" lon="-0.95076">
        <ele>11</ele>
      </trkpt>
      <trkpt lat="45.87562" lon="-0.95103">
        <ele>10.2</ele>
      </trkpt>
      <trkpt lat="45.87589" lon="-0.95122">
        <ele>10</ele>
      </trkpt>
      <trkpt lat="45.87596" lon="-0.95131">
        <ele>10</ele>
      </trkpt>
      <trkpt lat="45.87596" lon="-0.95121">
        <ele>10</ele>
        <extensions>
          <visugpx:TrkExtension xmlns:visugpx="https://www.visugpx.com/editgpx/">
            <visugpx:node>5</visugpx:node>
            </visugpx:TrkExtension>
        </extensions>
      </trkpt>
    </trkseg>
  </trk>
</gpx>